Back to Top

Language: 

My Weather Underground Personal Weather Station Historical Data with Graphs...

Delerius Weather Station Historical Data
Daily Summary for December 31, 2017 Units:  Both    English   Metric
« Previous Day
Next Day »
Daily Weekly Monthly Yearly Custom
  High: Low: Average:
Temperature: 53.2 °F /  11.8 °C 40.5 °F /  4.7 °C 46.8 °F /  8.2 °C
Dew Point: 49.5 °F /  9.7 °C 37.7 °F /  3.2 °C 41.3 °F /  5.2 °C
Humidity: 96 % 66 % 82 %
Wind Speed: 24.0 mph /  38.6 km/h - 13.1 mph /  21.1 km/h
Wind Gust: 39.0 mph /  62.8 km/h - -
Wind:- - SW
Pressure: 29.32 in /  992.8 hPa 29.10 in /  985.3 hPa -
Precipitation: 0.14 in /  3.56 mm    
Historical Graphs
 
 
Tabular Data for December 31, 2017
Time Temperature Dew Point Pressure Wind Wind Speed Wind Gust Humidity Rainfall Rate (Hourly) solar Conditions
00:04 46.6 °F /  8.1 °C 41.4 °F /  5.2 °C 29.32 in /  992.8 hPa South 4.0 mph /  6.4 km/h 7.0 mph /  11.3 km/h 82 % 0.00 in /  0 mm 0 W/m2
00:09 46.6 °F /  8.1 °C 41.4 °F /  5.2 °C 29.32 in /  992.8 hPa SSE 4.0 mph /  6.4 km/h 7.0 mph /  11.3 km/h 82 % 0.00 in /  0 mm 0 W/m2
00:14 46.4 °F /  8 °C 41.2 °F /  5.1 °C 29.31 in /  992.4 hPa SE 6.0 mph /  9.7 km/h 9.0 mph /  14.5 km/h 82 % 0.00 in /  0 mm 0 W/m2
00:15 46.4 °F /  8 °C 41.2 °F /  5.1 °C 29.31 in /  992.4 hPa SE 6.0 mph /  9.7 km/h 9.0 mph /  14.5 km/h 82 % 0.00 in /  0 mm 0 W/m2
00:20 46.4 °F /  8 °C 41.2 °F /  5.1 °C 29.32 in /  992.8 hPa SSE 6.0 mph /  9.7 km/h 8.0 mph /  12.9 km/h 82 % 0.00 in /  0 mm 0 W/m2
00:24 46.4 °F /  8 °C 41.2 °F /  5.1 °C 29.31 in /  992.4 hPa SE 4.0 mph /  6.4 km/h 7.0 mph /  11.3 km/h 82 % 0.00 in /  0 mm 0 W/m2
00:27 46.2 °F /  7.9 °C 41.3 °F /  5.2 °C 29.31 in /  992.4 hPa SE 3.0 mph /  4.8 km/h 8.0 mph /  12.9 km/h 83 % 0.00 in /  0 mm 0 W/m2
00:31 46.2 °F /  7.9 °C 41.3 °F /  5.2 °C 29.30 in /  992.1 hPa ESE 5.0 mph /  8 km/h 10.0 mph /  16.1 km/h 83 % 0.00 in /  0 mm 0 W/m2
00:33 46.2 °F /  7.9 °C 41.3 °F /  5.2 °C 29.30 in /  992.1 hPa ESE 6.0 mph /  9.7 km/h 9.0 mph /  14.5 km/h 83 % 0.00 in /  0 mm 0 W/m2
00:38 46.0 °F /  7.8 °C 41.2 °F /  5.1 °C 29.30 in /  992.1 hPa SE 6.0 mph /  9.7 km/h 10.0 mph /  16.1 km/h 83 % 0.00 in /  0 mm 0 W/m2
00:43 46.0 °F /  7.8 °C 41.5 °F /  5.3 °C 29.29 in /  991.8 hPa SSE 6.0 mph /  9.7 km/h 9.0 mph /  14.5 km/h 84 % 0.00 in /  0 mm 0 W/m2
00:46 46.0 °F /  7.8 °C 41.5 °F /  5.3 °C 29.28 in /  991.4 hPa SE 7.0 mph /  11.3 km/h 11.0 mph /  17.7 km/h 84 % 0.00 in /  0 mm 0 W/m2
00:51 45.9 °F /  7.7 °C 41.9 °F /  5.5 °C 29.28 in /  991.4 hPa SSE 9.0 mph /  14.5 km/h 14.0 mph /  22.5 km/h 86 % 0.00 in /  0 mm 0 W/m2
00:55 45.7 °F /  7.6 °C 42.0 °F /  5.6 °C 29.29 in /  991.8 hPa SSE 5.0 mph /  8 km/h 11.0 mph /  17.7 km/h 87 % 0.00 in /  0 mm 0 W/m2
00:58 45.7 °F /  7.6 °C 42.0 °F /  5.6 °C 29.28 in /  991.4 hPa South 6.0 mph /  9.7 km/h 9.0 mph /  14.5 km/h 87 % 0.00 in /  0 mm 0 W/m2
01:00 45.5 °F /  7.5 °C 42.2 °F /  5.7 °C 29.28 in /  991.4 hPa SSE 7.0 mph /  11.3 km/h 13.0 mph /  20.9 km/h 88 % 0.00 in /  0 mm 0 W/m2
01:05 45.3 °F /  7.4 °C 42.3 °F /  5.7 °C 29.26 in /  990.7 hPa SE 9.0 mph /  14.5 km/h 13.0 mph /  20.9 km/h 89 % 0.01 in /  0.25 mm 0 W/m2
01:10 45.1 °F /  7.3 °C 42.4 °F /  5.8 °C 29.25 in /  990.4 hPa SE 9.0 mph /  14.5 km/h 14.0 mph /  22.5 km/h 90 % 0.02 in /  0.51 mm 0 W/m2
01:15 45.0 °F /  7.2 °C 42.5 °F /  5.8 °C 29.25 in /  990.4 hPa SE 10.0 mph /  16.1 km/h 15.0 mph /  24.1 km/h 91 % 0.02 in /  0.51 mm 0 W/m2
01:16 45.0 °F /  7.2 °C 42.5 °F /  5.8 °C 29.25 in /  990.4 hPa SE 10.0 mph /  16.1 km/h 15.0 mph /  24.1 km/h 91 % 0.02 in /  0.51 mm 0 W/m2
01:21 44.8 °F /  7.1 °C 42.6 °F /  5.9 °C 29.24 in /  990.1 hPa SE 9.0 mph /  14.5 km/h 14.0 mph /  22.5 km/h 92 % 0.03 in /  0.76 mm 0 W/m2
01:22 44.8 °F /  7.1 °C 42.6 °F /  5.9 °C 29.24 in /  990.1 hPa SE 9.0 mph /  14.5 km/h 14.0 mph /  22.5 km/h 92 % 0.03 in /  0.76 mm 0 W/m2
01:27 44.8 °F /  7.1 °C 42.6 °F /  5.9 °C 29.23 in /  989.7 hPa SE 10.0 mph /  16.1 km/h 14.0 mph /  22.5 km/h 92 % 0.04 in /  1.02 mm 0 W/m2
01:32 44.6 °F /  7 °C 42.7 °F /  5.9 °C 29.22 in /  989.4 hPa SE 8.0 mph /  12.9 km/h 14.0 mph /  22.5 km/h 93 % 0.05 in /  1.27 mm 0 W/m2
01:34 44.6 °F /  7 °C 42.7 °F /  5.9 °C 29.23 in /  989.7 hPa SE 8.0 mph /  12.9 km/h 14.0 mph /  22.5 km/h 93 % 0.05 in /  1.27 mm 0 W/m2
01:35 44.6 °F /  7 °C 42.7 °F /  5.9 °C 29.23 in /  989.7 hPa SE 9.0 mph /  14.5 km/h 16.0 mph /  25.7 km/h 93 % 0.05 in /  1.27 mm 0 W/m2
01:40 44.6 °F /  7 °C 42.7 °F /  5.9 °C 29.22 in /  989.4 hPa SSE 8.0 mph /  12.9 km/h 12.0 mph /  19.3 km/h 93 % 0.06 in /  1.52 mm 0 W/m2
01:45 44.6 °F /  7 °C 43.0 °F /  6.1 °C 29.22 in /  989.4 hPa SSE 8.0 mph /  12.9 km/h 14.0 mph /  22.5 km/h 94 % 0.06 in /  1.52 mm 0 W/m2
01:48 44.6 °F /  7 °C 43.0 °F /  6.1 °C 29.22 in /  989.4 hPa SSE 7.0 mph /  11.3 km/h 15.0 mph /  24.1 km/h 94 % 0.06 in /  1.52 mm 0 W/m2
01:53 44.8 °F /  7.1 °C 43.2 °F /  6.2 °C 29.21 in /  989.1 hPa SSE 10.0 mph /  16.1 km/h 14.0 mph /  22.5 km/h 94 % 0.06 in /  1.52 mm 0 W/m2
01:54 44.8 °F /  7.1 °C 43.2 °F /  6.2 °C 29.21 in /  989.1 hPa SSE 9.0 mph /  14.5 km/h 13.0 mph /  20.9 km/h 94 % 0.06 in /  1.52 mm 0 W/m2
01:59 44.8 °F /  7.1 °C 43.2 °F /  6.2 °C 29.21 in /  989.1 hPa SSE 8.0 mph /  12.9 km/h 14.0 mph /  22.5 km/h 94 % 0.06 in /  1.52 mm 0 W/m2
02:00 44.8 °F /  7.1 °C 43.2 °F /  6.2 °C 29.20 in /  988.7 hPa SSE 9.0 mph /  14.5 km/h 14.0 mph /  22.5 km/h 94 % 0.06 in /  1.52 mm 0 W/m2
02:05 44.8 °F /  7.1 °C 43.2 °F /  6.2 °C 29.21 in /  989.1 hPa SSE 8.0 mph /  12.9 km/h 11.0 mph /  17.7 km/h 94 % 0.06 in /  1.52 mm 0 W/m2
02:10 44.8 °F /  7.1 °C 43.2 °F /  6.2 °C 29.20 in /  988.7 hPa South 6.0 mph /  9.7 km/h 12.0 mph /  19.3 km/h 94 % 0.05 in /  1.27 mm 0 W/m2
02:11 44.8 °F /  7.1 °C 43.4 °F /  6.3 °C 29.20 in /  988.7 hPa South 7.0 mph /  11.3 km/h 12.0 mph /  19.3 km/h 95 % 0.05 in /  1.27 mm 0 W/m2
02:14 44.8 °F /  7.1 °C 43.4 °F /  6.3 °C 29.20 in /  988.7 hPa South 9.0 mph /  14.5 km/h 14.0 mph /  22.5 km/h 95 % 0.04 in /  1.02 mm 0 W/m2
02:19 45.0 °F /  7.2 °C 43.6 °F /  6.4 °C 29.20 in /  988.7 hPa South 8.0 mph /  12.9 km/h 14.0 mph /  22.5 km/h 95 % 0.04 in /  1.02 mm 0 W/m2
02:21 45.0 °F /  7.2 °C 43.6 °F /  6.4 °C 29.20 in /  988.7 hPa South 8.0 mph /  12.9 km/h 15.0 mph /  24.1 km/h 95 % 0.04 in /  1.02 mm 0 W/m2
02:24 45.1 °F /  7.3 °C 43.8 °F /  6.6 °C 29.20 in /  988.7 hPa South 9.0 mph /  14.5 km/h 19.0 mph /  30.6 km/h 95 % 0.03 in /  0.76 mm 0 W/m2
02:27 45.1 °F /  7.3 °C 43.8 °F /  6.6 °C 29.20 in /  988.7 hPa SSW 7.0 mph /  11.3 km/h 18.0 mph /  29 km/h 95 % 0.02 in /  0.51 mm 0 W/m2
02:30 45.3 °F /  7.4 °C 44.0 °F /  6.7 °C 29.20 in /  988.7 hPa SSW 7.0 mph /  11.3 km/h 12.0 mph /  19.3 km/h 95 % 0.02 in /  0.51 mm 0 W/m2
02:32 45.3 °F /  7.4 °C 44.0 °F /  6.7 °C 29.20 in /  988.7 hPa SSW 7.0 mph /  11.3 km/h 12.0 mph /  19.3 km/h 95 % 0.02 in /  0.51 mm 0 W/m2
02:37 45.7 °F /  7.6 °C 44.3 °F /  6.8 °C 29.19 in /  988.4 hPa SSW 7.0 mph /  11.3 km/h 11.0 mph /  17.7 km/h 95 % 0.02 in /  0.51 mm 0 W/m2
02:38 45.7 °F /  7.6 °C 44.3 °F /  6.8 °C 29.19 in /  988.4 hPa SSW 7.0 mph /  11.3 km/h 10.0 mph /  16.1 km/h 95 % 0.02 in /  0.51 mm 0 W/m2
02:40 45.7 °F /  7.6 °C 44.3 °F /  6.8 °C 29.19 in /  988.4 hPa South 7.0 mph /  11.3 km/h 10.0 mph /  16.1 km/h 95 % 0.02 in /  0.51 mm 0 W/m2
02:43 45.9 °F /  7.7 °C 44.5 °F /  6.9 °C 29.18 in /  988 hPa South 7.0 mph /  11.3 km/h 10.0 mph /  16.1 km/h 95 % 0.02 in /  0.51 mm 0 W/m2
02:48 46.0 °F /  7.8 °C 45.0 °F /  7.2 °C 29.17 in /  987.7 hPa South 9.0 mph /  14.5 km/h 16.0 mph /  25.7 km/h 96 % 0.02 in /  0.51 mm 0 W/m2
02:51 46.2 °F /  7.9 °C 45.1 °F /  7.3 °C 29.17 in /  987.7 hPa SSW 7.0 mph /  11.3 km/h 15.0 mph /  24.1 km/h 96 % 0.02 in /  0.51 mm 0 W/m2
02:55 46.6 °F /  8.1 °C 45.5 °F /  7.5 °C 29.17 in /  987.7 hPa SSW 9.0 mph /  14.5 km/h 13.0 mph /  20.9 km/h 96 % 0.02 in /  0.51 mm 0 W/m2
03:00 47.1 °F /  8.4 °C 46.0 °F /  7.8 °C 29.18 in /  988 hPa SW 9.0 mph /  14.5 km/h 14.0 mph /  22.5 km/h 96 % 0.02 in /  0.51 mm 0 W/m2
03:05 47.7 °F /  8.7 °C 46.6 °F /  8.1 °C 29.17 in /  987.7 hPa SW 7.0 mph /  11.3 km/h 14.0 mph /  22.5 km/h 96 % 0.02 in /  0.51 mm 0 W/m2
03:06 47.8 °F /  8.8 °C 46.8 °F /  8.2 °C 29.17 in /  987.7 hPa SW 9.0 mph /  14.5 km/h 14.0 mph /  22.5 km/h 96 % 0.02 in /  0.51 mm 0 W/m2
03:07 47.8 °F /  8.8 °C 46.8 °F /  8.2 °C 29.17 in /  987.7 hPa SW 9.0 mph /  14.5 km/h 14.0 mph /  22.5 km/h 96 % 0.02 in /  0.51 mm 0 W/m2
03:14 48.7 °F /  9.3 °C 47.7 °F /  8.7 °C 29.17 in /  987.7 hPa SW 11.0 mph /  17.7 km/h 18.0 mph /  29 km/h 96 % 0.02 in /  0.51 mm 0 W/m2
03:21 49.6 °F /  9.8 °C 48.5 °F /  9.2 °C 29.17 in /  987.7 hPa WSW 13.0 mph /  20.9 km/h 21.0 mph /  33.8 km/h 96 % 0.01 in /  0.25 mm 0 W/m2
03:23 49.8 °F /  9.9 °C 48.7 °F /  9.3 °C 29.16 in /  987.4 hPa WSW 13.0 mph /  20.9 km/h 21.0 mph /  33.8 km/h 96 % 0.01 in /  0.25 mm 0 W/m2
03:24 50.0 °F /  10 °C 48.9 °F /  9.4 °C 29.16 in /  987.4 hPa WSW 12.0 mph /  19.3 km/h 21.0 mph /  33.8 km/h 96 % 0.01 in /  0.25 mm 0 W/m2
03:29 50.7 °F /  10.4 °C 49.3 °F /  9.6 °C 29.16 in /  987.4 hPa WSW 17.0 mph /  27.4 km/h 27.0 mph /  43.5 km/h 95 % 0.01 in /  0.25 mm 0 W/m2
03:30 50.9 °F /  10.5 °C 49.5 °F /  9.7 °C 29.16 in /  987.4 hPa WSW 17.0 mph /  27.4 km/h 27.0 mph /  43.5 km/h 95 % 0.01 in /  0.25 mm 0 W/m2
03:37 51.6 °F /  10.9 °C 49.4 °F /  9.7 °C 29.15 in /  987 hPa WSW 14.0 mph /  22.5 km/h 23.0 mph /  37 km/h 92 % 0.00 in /  0 mm 0 W/m2
03:38 51.6 °F /  10.9 °C 49.1 °F /  9.5 °C 29.16 in /  987.4 hPa WSW 15.0 mph /  24.1 km/h 29.0 mph /  46.7 km/h 91 % 0.00 in /  0 mm 0 W/m2
03:43 52.2 °F /  11.2 °C 49.0 °F /  9.4 °C 29.15 in /  987 hPa WSW 18.0 mph /  29 km/h 31.0 mph /  49.9 km/h 89 % 0.00 in /  0 mm 0 W/m2
03:44 52.2 °F /  11.2 °C 49.0 °F /  9.4 °C 29.15 in /  987 hPa WSW 19.0 mph /  30.6 km/h 31.0 mph /  49.9 km/h 89 % 0.00 in /  0 mm 0 W/m2
03:49 52.3 °F /  11.3 °C 48.9 °F /  9.4 °C 29.15 in /  987 hPa WSW 14.0 mph /  22.5 km/h 21.0 mph /  33.8 km/h 88 % 0.00 in /  0 mm 0 W/m2
03:54 52.5 °F /  11.4 °C 48.8 °F /  9.3 °C 29.14 in /  986.7 hPa WSW 16.0 mph /  25.7 km/h 26.0 mph /  41.8 km/h 87 % 0.00 in /  0 mm 0 W/m2
03:55 52.5 °F /  11.4 °C 48.8 °F /  9.3 °C 29.14 in /  986.7 hPa SW 14.0 mph /  22.5 km/h 26.0 mph /  41.8 km/h 87 % 0.00 in /  0 mm 0 W/m2
04:00 52.5 °F /  11.4 °C 48.8 °F /  9.3 °C 29.14 in /  986.7 hPa WSW 13.0 mph /  20.9 km/h 22.0 mph /  35.4 km/h 87 % 0.00 in /  0 mm 0 W/m2
04:04 52.5 °F /  11.4 °C 48.5 °F /  9.2 °C 29.14 in /  986.7 hPa WSW 18.0 mph /  29 km/h 26.0 mph /  41.8 km/h 86 % 0.00 in /  0 mm 0 W/m2
04:09 52.5 °F /  11.4 °C 48.5 °F /  9.2 °C 29.15 in /  987 hPa WSW 16.0 mph /  25.7 km/h 25.0 mph /  40.2 km/h 86 % 0.00 in /  0 mm 0 W/m2
04:12 52.5 °F /  11.4 °C 48.5 °F /  9.2 °C 29.15 in /  987 hPa WSW 15.0 mph /  24.1 km/h 25.0 mph /  40.2 km/h 86 % 0.00 in /  0 mm 0 W/m2
04:17 52.5 °F /  11.4 °C 48.1 °F /  8.9 °C 29.15 in /  987 hPa WSW 17.0 mph /  27.4 km/h 24.0 mph /  38.6 km/h 85 % 0.00 in /  0 mm 0 W/m2
04:18 52.5 °F /  11.4 °C 48.1 °F /  8.9 °C 29.14 in /  986.7 hPa WSW 17.0 mph /  27.4 km/h 24.0 mph /  38.6 km/h 85 % 0.00 in /  0 mm 0 W/m2
04:19 52.5 °F /  11.4 °C 48.1 °F /  8.9 °C 29.14 in /  986.7 hPa SW 16.0 mph /  25.7 km/h 22.0 mph /  35.4 km/h 85 % 0.00 in /  0 mm 0 W/m2
04:24 52.5 °F /  11.4 °C 48.1 °F /  8.9 °C 29.15 in /  987 hPa WSW 17.0 mph /  27.4 km/h 32.0 mph /  51.5 km/h 85 % 0.00 in /  0 mm 0 W/m2
04:25 52.5 °F /  11.4 °C 48.1 °F /  8.9 °C 29.14 in /  986.7 hPa WSW 17.0 mph /  27.4 km/h 32.0 mph /  51.5 km/h 85 % 0.00 in /  0 mm 0 W/m2
04:30 52.9 °F /  11.6 °C 48.2 °F /  9 °C 29.14 in /  986.7 hPa SW 19.0 mph /  30.6 km/h 29.0 mph /  46.7 km/h 84 % 0.00 in /  0 mm 0 W/m2
04:31 52.9 °F /  11.6 °C 48.2 °F /  9 °C 29.14 in /  986.7 hPa SW 20.0 mph /  32.2 km/h 29.0 mph /  46.7 km/h 84 % 0.00 in /  0 mm 0 W/m2
04:36 52.9 °F /  11.6 °C 48.2 °F /  9 °C 29.13 in /  986.3 hPa SW 19.0 mph /  30.6 km/h 37.0 mph /  59.5 km/h 84 % 0.00 in /  0 mm 0 W/m2
04:38 52.9 °F /  11.6 °C 47.9 °F /  8.8 °C 29.12 in /  986 hPa SW 19.0 mph /  30.6 km/h 37.0 mph /  59.5 km/h 83 % 0.00 in /  0 mm 0 W/m2
04:39 52.9 °F /  11.6 °C 47.9 °F /  8.8 °C 29.12 in /  986 hPa SW 19.0 mph /  30.6 km/h 29.0 mph /  46.7 km/h 83 % 0.00 in /  0 mm 0 W/m2
04:43 53.1 °F /  11.7 °C 48.0 °F /  8.9 °C 29.12 in /  986 hPa SW 22.0 mph /  35.4 km/h 39.0 mph /  62.8 km/h 83 % 0.00 in /  0 mm 0 W/m2
04:46 53.2 °F /  11.8 °C 47.9 °F /  8.8 °C 29.11 in /  985.7 hPa SW 22.0 mph /  35.4 km/h 32.0 mph /  51.5 km/h 82 % 0.00 in /  0 mm 0 W/m2
04:48 53.2 °F /  11.8 °C 47.9 °F /  8.8 °C 29.12 in /  986 hPa SW 18.0 mph /  29 km/h 29.0 mph /  46.7 km/h 82 % 0.00 in /  0 mm 0 W/m2
04:53 53.2 °F /  11.8 °C 48.2 °F /  9 °C 29.13 in /  986.3 hPa WSW 17.0 mph /  27.4 km/h 28.0 mph /  45.1 km/h 83 % 0.00 in /  0 mm 0 W/m2
04:58 53.2 °F /  11.8 °C 47.9 °F /  8.8 °C 29.14 in /  986.7 hPa WSW 15.0 mph /  24.1 km/h 28.0 mph /  45.1 km/h 82 % 0.00 in /  0 mm 0 W/m2
04:59 53.2 °F /  11.8 °C 47.9 °F /  8.8 °C 29.14 in /  986.7 hPa WSW 15.0 mph /  24.1 km/h 28.0 mph /  45.1 km/h 82 % 0.00 in /  0 mm 0 W/m2
05:04 53.2 °F /  11.8 °C 47.9 °F /  8.8 °C 29.13 in /  986.3 hPa WSW 14.0 mph /  22.5 km/h 21.0 mph /  33.8 km/h 82 % 0.00 in /  0 mm 0 W/m2
05:09 53.2 °F /  11.8 °C 47.9 °F /  8.8 °C 29.14 in /  986.7 hPa WSW 14.0 mph /  22.5 km/h 24.0 mph /  38.6 km/h 82 % 0.00 in /  0 mm 0 W/m2
05:14 53.1 °F /  11.7 °C 47.4 °F /  8.6 °C 29.13 in /  986.3 hPa SW 20.0 mph /  32.2 km/h 35.0 mph /  56.3 km/h 81 % 0.00 in /  0 mm 0 W/m2
05:15 53.1 °F /  11.7 °C 47.4 °F /  8.6 °C 29.13 in /  986.3 hPa SW 21.0 mph /  33.8 km/h 35.0 mph /  56.3 km/h 81 % 0.00 in /  0 mm 0 W/m2
05:20 53.2 °F /  11.8 °C 47.2 °F /  8.4 °C 29.13 in /  986.3 hPa SW 19.0 mph /  30.6 km/h 32.0 mph /  51.5 km/h 80 % 0.00 in /  0 mm 0 W/m2
05:25 53.2 °F /  11.8 °C 47.2 °F /  8.4 °C 29.13 in /  986.3 hPa SW 21.0 mph /  33.8 km/h 33.0 mph /  53.1 km/h 80 % 0.00 in /  0 mm 0 W/m2
05:30 53.2 °F /  11.8 °C 46.9 °F /  8.3 °C 29.13 in /  986.3 hPa SW 20.0 mph /  32.2 km/h 32.0 mph /  51.5 km/h 79 % 0.00 in /  0 mm 0 W/m2
05:31 53.1 °F /  11.7 °C 46.7 °F /  8.2 °C 29.13 in /  986.3 hPa SW 20.0 mph /  32.2 km/h 32.0 mph /  51.5 km/h 79 % 0.00 in /  0 mm 0 W/m2
05:36 53.1 °F /  11.7 °C 46.7 °F /  8.2 °C 29.13 in /  986.3 hPa SW 24.0 mph /  38.6 km/h 37.0 mph /  59.5 km/h 79 % 0.00 in /  0 mm 0 W/m2
05:37 53.1 °F /  11.7 °C 46.7 °F /  8.2 °C 29.13 in /  986.3 hPa SW 23.0 mph /  37 km/h 37.0 mph /  59.5 km/h 79 % 0.00 in /  0 mm 0 W/m2
05:40 52.9 °F /  11.6 °C 46.5 °F /  8.1 °C 29.13 in /  986.3 hPa WSW 20.0 mph /  32.2 km/h 33.0 mph /  53.1 km/h 79 % 0.00 in /  0 mm 0 W/m2
05:43 52.9 °F /  11.6 °C 46.2 °F /  7.9 °C 29.13 in /  986.3 hPa WSW 17.0 mph /  27.4 km/h 28.0 mph /  45.1 km/h 78 % 0.00 in /  0 mm 0 W/m2
05:48 52.7 °F /  11.5 °C 46.0 °F /  7.8 °C 29.13 in /  986.3 hPa WSW 24.0 mph /  38.6 km/h 36.0 mph /  57.9 km/h 78 % 0.00 in /  0 mm 0 W/m2
05:50 52.9 °F /  11.6 °C 46.2 °F /  7.9 °C 29.14 in /  986.7 hPa WSW 22.0 mph /  35.4 km/h 32.0 mph /  51.5 km/h 78 % 0.00 in /  0 mm 0 W/m2
05:51 52.7 °F /  11.5 °C 45.7 °F /  7.6 °C 29.13 in /  986.3 hPa WSW 21.0 mph /  33.8 km/h 31.0 mph /  49.9 km/h 77 % 0.00 in /  0 mm 0 W/m2
05:56 52.5 °F /  11.4 °C 45.5 °F /  7.5 °C 29.14 in /  986.7 hPa WSW 19.0 mph /  30.6 km/h 30.0 mph /  48.3 km/h 77 % 0.00 in /  0 mm 0 W/m2
06:01 52.3 °F /  11.3 °C 45.3 °F /  7.4 °C 29.14 in /  986.7 hPa SW 22.0 mph /  35.4 km/h 39.0 mph /  62.8 km/h 77 % 0.00 in /  0 mm 0 W/m2
06:04 52.3 °F /  11.3 °C 45.3 °F /  7.4 °C 29.14 in /  986.7 hPa SW 18.0 mph /  29 km/h 26.0 mph /  41.8 km/h 77 % 0.00 in /  0 mm 0 W/m2
06:06 52.2 °F /  11.2 °C 45.2 °F /  7.3 °C 29.13 in /  986.3 hPa SW 19.0 mph /  30.6 km/h 35.0 mph /  56.3 km/h 77 % 0.00 in /  0 mm 0 W/m2
06:09 52.2 °F /  11.2 °C 45.2 °F /  7.3 °C 29.13 in /  986.3 hPa WSW 23.0 mph /  37 km/h 33.0 mph /  53.1 km/h 77 % 0.00 in /  0 mm 0 W/m2
06:14 52.0 °F /  11.1 °C 45.0 °F /  7.2 °C 29.13 in /  986.3 hPa SW 18.0 mph /  29 km/h 31.0 mph /  49.9 km/h 77 % 0.00 in /  0 mm 0 W/m2
06:15 52.0 °F /  11.1 °C 45.0 °F /  7.2 °C 29.14 in /  986.7 hPa SW 18.0 mph /  29 km/h 28.0 mph /  45.1 km/h 77 % 0.00 in /  0 mm 0 W/m2
06:20 52.0 °F /  11.1 °C 45.0 °F /  7.2 °C 29.13 in /  986.3 hPa WSW 16.0 mph /  25.7 km/h 23.0 mph /  37 km/h 77 % 0.00 in /  0 mm 0 W/m2
06:26 51.8 °F /  11 °C 44.5 °F /  6.9 °C 29.14 in /  986.7 hPa WSW 19.0 mph /  30.6 km/h 29.0 mph /  46.7 km/h 76 % 0.00 in /  0 mm 0 W/m2
06:31 51.6 °F /  10.9 °C 44.3 °F /  6.8 °C 29.14 in /  986.7 hPa WSW 20.0 mph /  32.2 km/h 31.0 mph /  49.9 km/h 76 % 0.00 in /  0 mm 0 W/m2
06:35 51.6 °F /  10.9 °C 44.3 °F /  6.8 °C 29.14 in /  986.7 hPa WSW 17.0 mph /  27.4 km/h 29.0 mph /  46.7 km/h 76 % 0.00 in /  0 mm 0 W/m2
06:36 51.6 °F /  10.9 °C 44.3 °F /  6.8 °C 29.14 in /  986.7 hPa WSW 18.0 mph /  29 km/h 29.0 mph /  46.7 km/h 76 % 0.00 in /  0 mm 0 W/m2
06:41 51.6 °F /  10.9 °C 44.3 °F /  6.8 °C 29.15 in /  987 hPa WSW 17.0 mph /  27.4 km/h 30.0 mph /  48.3 km/h 76 % 0.00 in /  0 mm 0 W/m2
06:42 51.4 °F /  10.8 °C 44.1 °F /  6.7 °C 29.15 in /  987 hPa WSW 22.0 mph /  35.4 km/h 35.0 mph /  56.3 km/h 76 % 0.00 in /  0 mm 0 W/m2
06:47 51.4 °F /  10.8 °C 44.1 °F /  6.7 °C 29.15 in /  987 hPa SW 21.0 mph /  33.8 km/h 33.0 mph /  53.1 km/h 76 % 0.00 in /  0 mm 0 W/m2
06:48 51.4 °F /  10.8 °C 44.1 °F /  6.7 °C 29.15 in /  987 hPa WSW 23.0 mph /  37 km/h 33.0 mph /  53.1 km/h 76 % 0.00 in /  0 mm 0 W/m2
06:53 51.4 °F /  10.8 °C 44.1 °F /  6.7 °C 29.15 in /  987 hPa WSW 15.0 mph /  24.1 km/h 23.0 mph /  37 km/h 76 % 0.00 in /  0 mm 0 W/m2
06:54 51.4 °F /  10.8 °C 44.1 °F /  6.7 °C 29.15 in /  987 hPa WSW 15.0 mph /  24.1 km/h 23.0 mph /  37 km/h 76 % 0.00 in /  0 mm 0 W/m2
06:59 51.3 °F /  10.7 °C 44.3 °F /  6.8 °C 29.15 in /  987 hPa WSW 16.0 mph /  25.7 km/h 25.0 mph /  40.2 km/h 77 % 0.00 in /  0 mm 0 W/m2
07:04 51.3 °F /  10.7 °C 44.0 °F /  6.7 °C 29.15 in /  987 hPa WSW 21.0 mph /  33.8 km/h 30.0 mph /  48.3 km/h 76 % 0.00 in /  0 mm 0 W/m2
07:09 51.1 °F /  10.6 °C 43.8 °F /  6.6 °C 29.15 in /  987 hPa WSW 16.0 mph /  25.7 km/h 26.0 mph /  41.8 km/h 76 % 0.00 in /  0 mm 0 W/m2
07:11 51.1 °F /  10.6 °C 43.4 °F /  6.3 °C 29.15 in /  987 hPa WSW 17.0 mph /  27.4 km/h 29.0 mph /  46.7 km/h 75 % 0.00 in /  0 mm 0 W/m2
07:15 51.1 °F /  10.6 °C 43.1 °F /  6.2 °C 29.15 in /  987 hPa WSW 18.0 mph /  29 km/h 29.0 mph /  46.7 km/h 74 % 0.00 in /  0 mm 0 W/m2
07:16 51.1 °F /  10.6 °C 43.1 °F /  6.2 °C 29.15 in /  987 hPa WSW 17.0 mph /  27.4 km/h 27.0 mph /  43.5 km/h 74 % 0.00 in /  0 mm 0 W/m2
07:21 51.1 °F /  10.6 °C 42.7 °F /  5.9 °C 29.15 in /  987 hPa WSW 20.0 mph /  32.2 km/h 28.0 mph /  45.1 km/h 73 % 0.00 in /  0 mm 0 W/m2
07:23 50.9 °F /  10.5 °C 42.6 °F /  5.9 °C 29.15 in /  987 hPa WSW 18.0 mph /  29 km/h 28.0 mph /  45.1 km/h 73 % 0.00 in /  0 mm 0 W/m2
07:27 50.9 °F /  10.5 °C 42.9 °F /  6.1 °C 29.16 in /  987.4 hPa WSW 18.0 mph /  29 km/h 25.0 mph /  40.2 km/h 74 % 0.00 in /  0 mm 0 W/m2
07:29 50.7 °F /  10.4 °C 42.7 °F /  5.9 °C 29.16 in /  987.4 hPa WSW 18.0 mph /  29 km/h 31.0 mph /  49.9 km/h 74 % 0.00 in /  0 mm 0 W/m2
07:34 50.5 °F /  10.3 °C 42.6 °F /  5.9 °C 29.16 in /  987.4 hPa WSW 17.0 mph /  27.4 km/h 29.0 mph /  46.7 km/h 74 % 0.00 in /  0 mm 0 W/m2
07:36 50.5 °F /  10.3 °C 42.2 °F /  5.7 °C 29.16 in /  987.4 hPa WSW 16.0 mph /  25.7 km/h 28.0 mph /  45.1 km/h 73 % 0.00 in /  0 mm 0 W/m2
07:37 50.5 °F /  10.3 °C 42.2 °F /  5.7 °C 29.16 in /  987.4 hPa WSW 18.0 mph /  29 km/h 28.0 mph /  45.1 km/h 73 % 0.00 in /  0 mm 0 W/m2
07:42 50.4 °F /  10.2 °C 40.6 °F /  4.8 °C 29.16 in /  987.4 hPa WSW 21.0 mph /  33.8 km/h 32.0 mph /  51.5 km/h 69 % 0.00 in /  0 mm 0 W/m2
07:43 50.4 °F /  10.2 °C 40.6 °F /  4.8 °C 29.17 in /  987.7 hPa WSW 20.0 mph /  32.2 km/h 30.0 mph /  48.3 km/h 69 % 0.00 in /  0 mm 0 W/m2
07:48 50.2 °F /  10.1 °C 39.6 °F /  4.2 °C 29.17 in /  987.7 hPa WSW 23.0 mph /  37 km/h 32.0 mph /  51.5 km/h 67 % 0.00 in /  0 mm 0 W/m2
07:51 50.2 °F /  10.1 °C 39.3 °F /  4.1 °C 29.17 in /  987.7 hPa WSW 19.0 mph /  30.6 km/h 31.0 mph /  49.9 km/h 66 % 0.00 in /  0 mm 0 W/m2
07:54 50.2 °F /  10.1 °C 39.6 °F /  4.2 °C 29.17 in /  987.7 hPa WSW 15.0 mph /  24.1 km/h 28.0 mph /  45.1 km/h 67 % 0.00 in /  0 mm 0 W/m2
07:59 49.8 °F /  9.9 °C 39.3 °F /  4.1 °C 29.17 in /  987.7 hPa WSW 20.0 mph /  32.2 km/h 31.0 mph /  49.9 km/h 67 % 0.00 in /  0 mm 0 W/m2
08:00 49.8 °F /  9.9 °C 39.3 °F /  4.1 °C 29.17 in /  987.7 hPa WSW 16.0 mph /  25.7 km/h 27.0 mph /  43.5 km/h 67 % 0.00 in /  0 mm 0 W/m2
08:03 49.6 °F /  9.8 °C 39.5 °F /  4.2 °C 29.17 in /  987.7 hPa WSW 19.0 mph /  30.6 km/h 31.0 mph /  49.9 km/h 68 % 0.00 in /  0 mm 0 W/m2
08:08 49.5 °F /  9.7 °C 39.7 °F /  4.3 °C 29.17 in /  987.7 hPa WSW 17.0 mph /  27.4 km/h 30.0 mph /  48.3 km/h 69 % 0.00 in /  0 mm 0 W/m2
08:10 49.3 °F /  9.6 °C 39.5 °F /  4.2 °C 29.17 in /  987.7 hPa WSW 21.0 mph /  33.8 km/h 30.0 mph /  48.3 km/h 69 % 0.00 in /  0 mm 0 W/m2
08:11 49.3 °F /  9.6 °C 39.5 °F /  4.2 °C 29.17 in /  987.7 hPa WSW 22.0 mph /  35.4 km/h 30.0 mph /  48.3 km/h 69 % 0.00 in /  0 mm 0 W/m2
08:16 49.1 °F /  9.5 °C 39.7 °F /  4.3 °C 29.18 in /  988 hPa WSW 18.0 mph /  29 km/h 32.0 mph /  51.5 km/h 70 % 0.00 in /  0 mm 0 W/m2
08:19 48.9 °F /  9.4 °C 39.6 °F /  4.2 °C 29.18 in /  988 hPa WSW 18.0 mph /  29 km/h 30.0 mph /  48.3 km/h 70 % 0.00 in /  0 mm 0 W/m2
08:24 48.7 °F /  9.3 °C 39.4 °F /  4.1 °C 29.18 in /  988 hPa WSW 21.0 mph /  33.8 km/h 32.0 mph /  51.5 km/h 70 % 0.00 in /  0 mm 0 W/m2
08:29 48.6 °F /  9.2 °C 39.2 °F /  4 °C 29.19 in /  988.4 hPa WSW 17.0 mph /  27.4 km/h 27.0 mph /  43.5 km/h 70 % 0.00 in /  0 mm 5 W/m2
08:33 48.4 °F /  9.1 °C 39.0 °F /  3.9 °C 29.19 in /  988.4 hPa WSW 19.0 mph /  30.6 km/h 26.0 mph /  41.8 km/h 70 % 0.00 in /  0 mm 7 W/m2
08:38 48.2 °F /  9 °C 38.9 °F /  3.8 °C 29.19 in /  988.4 hPa WSW 21.0 mph /  33.8 km/h 29.0 mph /  46.7 km/h 70 % 0.00 in /  0 mm 12 W/m2
08:43 48.0 °F /  8.9 °C 38.7 °F /  3.7 °C 29.19 in /  988.4 hPa WSW 17.0 mph /  27.4 km/h 29.0 mph /  46.7 km/h 70 % 0.00 in /  0 mm 14 W/m2
08:48 47.8 °F /  8.8 °C 38.9 °F /  3.8 °C 29.19 in /  988.4 hPa WSW 17.0 mph /  27.4 km/h 26.0 mph /  41.8 km/h 71 % 0.00 in /  0 mm 12 W/m2
08:52 47.7 °F /  8.7 °C 39.1 °F /  3.9 °C 29.19 in /  988.4 hPa WSW 14.0 mph /  22.5 km/h 24.0 mph /  38.6 km/h 72 % 0.00 in /  0 mm 11 W/m2
08:56 47.7 °F /  8.7 °C 38.7 °F /  3.7 °C 29.19 in /  988.4 hPa WSW 14.0 mph /  22.5 km/h 20.0 mph /  32.2 km/h 71 % 0.00 in /  0 mm 9 W/m2
09:01 47.7 °F /  8.7 °C 38.7 °F /  3.7 °C 29.19 in /  988.4 hPa WSW 16.0 mph /  25.7 km/h 23.0 mph /  37 km/h 71 % 0.00 in /  0 mm 12 W/m2
09:02 47.5 °F /  8.6 °C 38.5 °F /  3.6 °C 29.19 in /  988.4 hPa WSW 15.0 mph /  24.1 km/h 23.0 mph /  37 km/h 71 % 0.00 in /  0 mm 12 W/m2
09:07 47.7 °F /  8.7 °C 38.4 °F /  3.6 °C 29.19 in /  988.4 hPa WSW 15.0 mph /  24.1 km/h 21.0 mph /  33.8 km/h 70 % 0.00 in /  0 mm 14 W/m2
09:09 47.5 °F /  8.6 °C 38.2 °F /  3.4 °C 29.19 in /  988.4 hPa SW 17.0 mph /  27.4 km/h 31.0 mph /  49.9 km/h 70 % 0.00 in /  0 mm 16 W/m2
09:12 47.5 °F /  8.6 °C 38.2 °F /  3.4 °C 29.19 in /  988.4 hPa WSW 15.0 mph /  24.1 km/h 25.0 mph /  40.2 km/h 70 % 0.00 in /  0 mm 18 W/m2
09:17 47.5 °F /  8.6 °C 38.5 °F /  3.6 °C 29.19 in /  988.4 hPa WSW 20.0 mph /  32.2 km/h 29.0 mph /  46.7 km/h 71 % 0.00 in /  0 mm 26 W/m2
09:19 47.5 °F /  8.6 °C 38.5 °F /  3.6 °C 29.19 in /  988.4 hPa WSW 19.0 mph /  30.6 km/h 28.0 mph /  45.1 km/h 71 % 0.00 in /  0 mm 30 W/m2
09:24 47.5 °F /  8.6 °C 38.5 °F /  3.6 °C 29.19 in /  988.4 hPa WSW 17.0 mph /  27.4 km/h 27.0 mph /  43.5 km/h 71 % 0.00 in /  0 mm 30 W/m2
09:25 47.5 °F /  8.6 °C 38.5 °F /  3.6 °C 29.19 in /  988.4 hPa WSW 17.0 mph /  27.4 km/h 27.0 mph /  43.5 km/h 71 % 0.00 in /  0 mm 30 W/m2
09:27 47.5 °F /  8.6 °C 38.5 °F /  3.6 °C 29.19 in /  988.4 hPa WSW 18.0 mph /  29 km/h 28.0 mph /  45.1 km/h 71 % 0.00 in /  0 mm 32 W/m2
09:31 47.5 °F /  8.6 °C 38.5 °F /  3.6 °C 29.19 in /  988.4 hPa WSW 19.0 mph /  30.6 km/h 30.0 mph /  48.3 km/h 71 % 0.00 in /  0 mm 32 W/m2
09:36 47.3 °F /  8.5 °C 38.7 °F /  3.7 °C 29.19 in /  988.4 hPa WSW 17.0 mph /  27.4 km/h 30.0 mph /  48.3 km/h 72 % 0.00 in /  0 mm 30 W/m2
09:41 47.3 °F /  8.5 °C 38.7 °F /  3.7 °C 29.19 in /  988.4 hPa WSW 17.0 mph /  27.4 km/h 26.0 mph /  41.8 km/h 72 % 0.00 in /  0 mm 28 W/m2
09:43 47.3 °F /  8.5 °C 38.7 °F /  3.7 °C 29.19 in /  988.4 hPa WSW 19.0 mph /  30.6 km/h 30.0 mph /  48.3 km/h 72 % 0.00 in /  0 mm 32 W/m2
09:48 47.5 °F /  8.6 °C 38.9 °F /  3.8 °C 29.19 in /  988.4 hPa WSW 20.0 mph /  32.2 km/h 31.0 mph /  49.9 km/h 72 % 0.00 in /  0 mm 37 W/m2
09:50 47.5 °F /  8.6 °C 38.9 °F /  3.8 °C 29.19 in /  988.4 hPa WSW 21.0 mph /  33.8 km/h 31.0 mph /  49.9 km/h 72 % 0.00 in /  0 mm 37 W/m2
09:55 47.5 °F /  8.6 °C 38.9 °F /  3.8 °C 29.19 in /  988.4 hPa WSW 17.0 mph /  27.4 km/h 27.0 mph /  43.5 km/h 72 % 0.00 in /  0 mm 40 W/m2
09:56 47.5 °F /  8.6 °C 38.9 °F /  3.8 °C 29.19 in /  988.4 hPa WSW 17.0 mph /  27.4 km/h 23.0 mph /  37 km/h 72 % 0.00 in /  0 mm 42 W/m2
10:01 47.5 °F /  8.6 °C 38.9 °F /  3.8 °C 29.19 in /  988.4 hPa WSW 15.0 mph /  24.1 km/h 28.0 mph /  45.1 km/h 72 % 0.00 in /  0 mm 53 W/m2
10:02 47.3 °F /  8.5 °C 38.7 °F /  3.7 °C 29.19 in /  988.4 hPa WSW 15.0 mph /  24.1 km/h 28.0 mph /  45.1 km/h 72 % 0.00 in /  0 mm 47 W/m2
10:07 47.3 °F /  8.5 °C 38.7 °F /  3.7 °C 29.19 in /  988.4 hPa WSW 13.0 mph /  20.9 km/h 20.0 mph /  32.2 km/h 72 % 0.00 in /  0 mm 40 W/m2
10:08 47.3 °F /  8.5 °C 38.7 °F /  3.7 °C 29.19 in /  988.4 hPa WSW 16.0 mph /  25.7 km/h 25.0 mph /  40.2 km/h 72 % 0.00 in /  0 mm 40 W/m2
10:13 47.3 °F /  8.5 °C 38.7 °F /  3.7 °C 29.19 in /  988.4 hPa WSW 17.0 mph /  27.4 km/h 27.0 mph /  43.5 km/h 72 % 0.00 in /  0 mm 53 W/m2
10:18 47.3 °F /  8.5 °C 39.1 °F /  3.9 °C 29.19 in /  988.4 hPa WSW 17.0 mph /  27.4 km/h 26.0 mph /  41.8 km/h 73 % 0.00 in /  0 mm 56 W/m2
10:20 47.3 °F /  8.5 °C 39.1 °F /  3.9 °C 29.19 in /  988.4 hPa WSW 17.0 mph /  27.4 km/h 26.0 mph /  41.8 km/h 73 % 0.00 in /  0 mm 56 W/m2
10:21 47.3 °F /  8.5 °C 39.1 °F /  3.9 °C 29.19 in /  988.4 hPa WSW 16.0 mph /  25.7 km/h 23.0 mph /  37 km/h 73 % 0.00 in /  0 mm 113 W/m2
10:25 47.3 °F /  8.5 °C 39.4 °F /  4.1 °C 29.19 in /  988.4 hPa WSW 19.0 mph /  30.6 km/h 25.0 mph /  40.2 km/h 74 % 0.00 in /  0 mm 156 W/m2
10:30 47.5 °F /  8.6 °C 39.6 °F /  4.2 °C 29.19 in /  988.4 hPa WSW 17.0 mph /  27.4 km/h 28.0 mph /  45.1 km/h 74 % 0.00 in /  0 mm 160 W/m2
10:34 47.7 °F /  8.7 °C 39.8 °F /  4.3 °C 29.19 in /  988.4 hPa WSW 13.0 mph /  20.9 km/h 20.0 mph /  32.2 km/h 74 % 0.00 in /  0 mm 125 W/m2
10:36 47.7 °F /  8.7 °C 39.8 °F /  4.3 °C 29.19 in /  988.4 hPa WSW 15.0 mph /  24.1 km/h 25.0 mph /  40.2 km/h 74 % 0.00 in /  0 mm 104 W/m2
10:41 47.8 °F /  8.8 °C 40.0 °F /  4.4 °C 29.18 in /  988 hPa WSW 19.0 mph /  30.6 km/h 28.0 mph /  45.1 km/h 74 % 0.00 in /  0 mm 176 W/m2
10:43 48.0 °F /  8.9 °C 40.5 °F /  4.7 °C 29.19 in /  988.4 hPa WSW 17.0 mph /  27.4 km/h 28.0 mph /  45.1 km/h 75 % 0.00 in /  0 mm 190 W/m2
10:47 48.4 °F /  9.1 °C 40.5 °F /  4.7 °C 29.18 in /  988 hPa WSW 18.0 mph /  29 km/h 29.0 mph /  46.7 km/h 74 % 0.00 in /  0 mm 132 W/m2
10:52 48.4 °F /  9.1 °C 40.5 °F /  4.7 °C 29.18 in /  988 hPa WSW 14.0 mph /  22.5 km/h 21.0 mph /  33.8 km/h 74 % 0.00 in /  0 mm 58 W/m2
10:53 48.2 °F /  9 °C 40.6 °F /  4.8 °C 29.18 in /  988 hPa WSW 15.0 mph /  24.1 km/h 28.0 mph /  45.1 km/h 75 % 0.00 in /  0 mm 200 W/m2
10:58 48.4 °F /  9.1 °C 40.8 °F /  4.9 °C 29.18 in /  988 hPa WSW 16.0 mph /  25.7 km/h 28.0 mph /  45.1 km/h 75 % 0.00 in /  0 mm 207 W/m2
10:59 48.4 °F /  9.1 °C 40.8 °F /  4.9 °C 29.18 in /  988 hPa WSW 16.0 mph /  25.7 km/h 28.0 mph /  45.1 km/h 75 % 0.00 in /  0 mm 207 W/m2
11:00 48.4 °F /  9.1 °C 40.8 °F /  4.9 °C 29.18 in /  988 hPa WSW 14.0 mph /  22.5 km/h 24.0 mph /  38.6 km/h 75 % 0.00 in /  0 mm 214 W/m2
11:04 48.6 °F /  9.2 °C 41.3 °F /  5.2 °C 29.18 in /  988 hPa WSW 16.0 mph /  25.7 km/h 27.0 mph /  43.5 km/h 76 % 0.00 in /  0 mm 214 W/m2
11:09 48.7 °F /  9.3 °C 41.2 °F /  5.1 °C 29.18 in /  988 hPa WSW 19.0 mph /  30.6 km/h 25.0 mph /  40.2 km/h 75 % 0.00 in /  0 mm 204 W/m2
11:14 48.9 °F /  9.4 °C 41.3 °F /  5.2 °C 29.19 in /  988.4 hPa SW 19.0 mph /  30.6 km/h 28.0 mph /  45.1 km/h 75 % 0.00 in /  0 mm 230 W/m2
11:19 49.1 °F /  9.5 °C 40.8 °F /  4.9 °C 29.19 in /  988.4 hPa WSW 17.0 mph /  27.4 km/h 28.0 mph /  45.1 km/h 73 % 0.00 in /  0 mm 236 W/m2
11:22 49.3 °F /  9.6 °C 41.0 °F /  5 °C 29.19 in /  988.4 hPa WSW 19.0 mph /  30.6 km/h 34.0 mph /  54.7 km/h 73 % 0.00 in /  0 mm 237 W/m2
11:27 49.3 °F /  9.6 °C 40.6 °F /  4.8 °C 29.19 in /  988.4 hPa SW 18.0 mph /  29 km/h 31.0 mph /  49.9 km/h 72 % 0.00 in /  0 mm 236 W/m2
11:29 49.5 °F /  9.7 °C 40.4 °F /  4.7 °C 29.19 in /  988.4 hPa SW 20.0 mph /  32.2 km/h 31.0 mph /  49.9 km/h 71 % 0.00 in /  0 mm 239 W/m2
11:32 49.5 °F /  9.7 °C 39.7 °F /  4.3 °C 29.19 in /  988.4 hPa WSW 21.0 mph /  33.8 km/h 34.0 mph /  54.7 km/h 69 % 0.00 in /  0 mm 239 W/m2
11:36 49.6 °F /  9.8 °C 39.9 °F /  4.4 °C 29.19 in /  988.4 hPa WSW 15.0 mph /  24.1 km/h 24.0 mph /  38.6 km/h 69 % 0.00 in /  0 mm 243 W/m2
11:41 49.6 °F /  9.8 °C 39.5 °F /  4.2 °C 29.19 in /  988.4 hPa WSW 19.0 mph /  30.6 km/h 26.0 mph /  41.8 km/h 68 % 0.00 in /  0 mm 246 W/m2
11:42 49.6 °F /  9.8 °C 39.5 °F /  4.2 °C 29.19 in /  988.4 hPa WSW 19.0 mph /  30.6 km/h 30.0 mph /  48.3 km/h 68 % 0.00 in /  0 mm 243 W/m2
11:47 49.8 °F /  9.9 °C 39.3 °F /  4.1 °C 29.18 in /  988 hPa WSW 19.0 mph /  30.6 km/h 31.0 mph /  49.9 km/h 67 % 0.00 in /  0 mm 248 W/m2
11:52 49.8 °F /  9.9 °C 39.3 °F /  4.1 °C 29.19 in /  988.4 hPa WSW 17.0 mph /  27.4 km/h 30.0 mph /  48.3 km/h 67 % 0.00 in /  0 mm 244 W/m2
11:53 49.8 °F /  9.9 °C 39.3 °F /  4.1 °C 29.19 in /  988.4 hPa WSW 19.0 mph /  30.6 km/h 34.0 mph /  54.7 km/h 67 % 0.00 in /  0 mm 246 W/m2
11:54 49.8 °F /  9.9 °C 39.3 °F /  4.1 °C 29.19 in /  988.4 hPa SW 19.0 mph /  30.6 km/h 34.0 mph /  54.7 km/h 67 % 0.00 in /  0 mm 246 W/m2
11:59 49.8 °F /  9.9 °C 38.9 °F /  3.8 °C 29.19 in /  988.4 hPa WSW 21.0 mph /  33.8 km/h 36.0 mph /  57.9 km/h 66 % 0.00 in /  0 mm 248 W/m2
12:00 49.8 °F /  9.9 °C 38.9 °F /  3.8 °C 29.19 in /  988.4 hPa WSW 21.0 mph /  33.8 km/h 36.0 mph /  57.9 km/h 66 % 0.00 in /  0 mm 246 W/m2
12:04 49.8 °F /  9.9 °C 38.9 °F /  3.8 °C 29.19 in /  988.4 hPa WSW 21.0 mph /  33.8 km/h 37.0 mph /  59.5 km/h 66 % 0.00 in /  0 mm 248 W/m2
12:07 49.8 °F /  9.9 °C 39.3 °F /  4.1 °C 29.18 in /  988 hPa WSW 21.0 mph /  33.8 km/h 30.0 mph /  48.3 km/h 67 % 0.00 in /  0 mm 244 W/m2
12:12 49.8 °F /  9.9 °C 39.3 °F /  4.1 °C 29.18 in /  988 hPa WSW 18.0 mph /  29 km/h 27.0 mph /  43.5 km/h 67 % 0.00 in /  0 mm 246 W/m2
12:17 49.8 °F /  9.9 °C 39.3 °F /  4.1 °C 29.18 in /  988 hPa WSW 21.0 mph /  33.8 km/h 31.0 mph /  49.9 km/h 67 % 0.00 in /  0 mm 237 W/m2
12:18 49.8 °F /  9.9 °C 39.3 °F /  4.1 °C 29.18 in /  988 hPa WSW 18.0 mph /  29 km/h 28.0 mph /  45.1 km/h 67 % 0.00 in /  0 mm 239 W/m2
12:23 50.0 °F /  10 °C 39.5 °F /  4.2 °C 29.18 in /  988 hPa WSW 19.0 mph /  30.6 km/h 28.0 mph /  45.1 km/h 67 % 0.00 in /  0 mm 243 W/m2
12:25 50.0 °F /  10 °C 39.5 °F /  4.2 °C 29.18 in /  988 hPa WSW 20.0 mph /  32.2 km/h 32.0 mph /  51.5 km/h 67 % 0.00 in /  0 mm 241 W/m2
12:30 50.0 °F /  10 °C 39.5 °F /  4.2 °C 29.18 in /  988 hPa WSW 17.0 mph /  27.4 km/h 25.0 mph /  40.2 km/h 67 % 0.00 in /  0 mm 239 W/m2
12:35 49.8 °F /  9.9 °C 39.3 °F /  4.1 °C 29.19 in /  988.4 hPa WSW 20.0 mph /  32.2 km/h 31.0 mph /  49.9 km/h 67 % 0.00 in /  0 mm 241 W/m2
12:36 49.8 °F /  9.9 °C 39.3 °F /  4.1 °C 29.19 in /  988.4 hPa WSW 20.0 mph /  32.2 km/h 31.0 mph /  49.9 km/h 67 % 0.00 in /  0 mm 241 W/m2
12:37 49.8 °F /  9.9 °C 39.7 °F /  4.3 °C 29.19 in /  988.4 hPa WSW 19.0 mph /  30.6 km/h 29.0 mph /  46.7 km/h 68 % 0.00 in /  0 mm 236 W/m2
12:42 50.0 °F /  10 °C 39.8 °F /  4.3 °C 29.19 in /  988.4 hPa WSW 18.0 mph /  29 km/h 26.0 mph /  41.8 km/h 68 % 0.00 in /  0 mm 236 W/m2
12:43 50.0 °F /  10 °C 39.8 °F /  4.3 °C 29.19 in /  988.4 hPa SW 19.0 mph /  30.6 km/h 27.0 mph /  43.5 km/h 68 % 0.00 in /  0 mm 234 W/m2
12:45 50.0 °F /  10 °C 40.2 °F /  4.6 °C 29.18 in /  988 hPa SW 16.0 mph /  25.7 km/h 27.0 mph /  43.5 km/h 69 % 0.00 in /  0 mm 202 W/m2
12:49 49.8 °F /  9.9 °C 40.4 °F /  4.7 °C 29.18 in /  988 hPa SW 15.0 mph /  24.1 km/h 26.0 mph /  41.8 km/h 70 % 0.00 in /  0 mm 132 W/m2
12:54 49.5 °F /  9.7 °C 40.4 °F /  4.7 °C 29.18 in /  988 hPa SW 18.0 mph /  29 km/h 27.0 mph /  43.5 km/h 71 % 0.00 in /  0 mm 60 W/m2
12:56 49.3 °F /  9.6 °C 40.6 °F /  4.8 °C 29.18 in /  988 hPa WSW 16.0 mph /  25.7 km/h 23.0 mph /  37 km/h 72 % 0.00 in /  0 mm 77 W/m2
13:01 48.9 °F /  9.4 °C 40.6 °F /  4.8 °C 29.19 in /  988.4 hPa SW 14.0 mph /  22.5 km/h 23.0 mph /  37 km/h 73 % 0.00 in /  0 mm 102 W/m2
13:02 48.7 °F /  9.3 °C 40.5 °F /  4.7 °C 29.19 in /  988.4 hPa SW 15.0 mph /  24.1 km/h 23.0 mph /  37 km/h 73 % 0.00 in /  0 mm 91 W/m2
13:07 48.7 °F /  9.3 °C 40.5 °F /  4.7 °C 29.19 in /  988.4 hPa WSW 15.0 mph /  24.1 km/h 24.0 mph /  38.6 km/h 73 % 0.00 in /  0 mm 95 W/m2
13:09 48.7 °F /  9.3 °C 40.8 °F /  4.9 °C 29.19 in /  988.4 hPa WSW 13.0 mph /  20.9 km/h 23.0 mph /  37 km/h 74 % 0.00 in /  0 mm 104 W/m2
13:14 48.7 °F /  9.3 °C 40.5 °F /  4.7 °C 29.19 in /  988.4 hPa SW 19.0 mph /  30.6 km/h 27.0 mph /  43.5 km/h 73 % 0.00 in /  0 mm 181 W/m2
13:16 48.9 °F /  9.4 °C 41.0 °F /  5 °C 29.19 in /  988.4 hPa WSW 17.0 mph /  27.4 km/h 26.0 mph /  41.8 km/h 74 % 0.00 in /  0 mm 169 W/m2
13:21 48.9 °F /  9.4 °C 40.6 °F /  4.8 °C 29.19 in /  988.4 hPa WSW 13.0 mph /  20.9 km/h 20.0 mph /  32.2 km/h 73 % 0.00 in /  0 mm 142 W/m2
13:25 48.9 °F /  9.4 °C 41.0 °F /  5 °C 29.18 in /  988 hPa WSW 17.0 mph /  27.4 km/h 24.0 mph /  38.6 km/h 74 % 0.00 in /  0 mm 171 W/m2
13:30 48.9 °F /  9.4 °C 40.6 °F /  4.8 °C 29.18 in /  988 hPa SW 16.0 mph /  25.7 km/h 22.0 mph /  35.4 km/h 73 % 0.00 in /  0 mm 132 W/m2
13:35 48.9 °F /  9.4 °C 40.6 °F /  4.8 °C 29.18 in /  988 hPa WSW 14.0 mph /  22.5 km/h 24.0 mph /  38.6 km/h 73 % 0.00 in /  0 mm 121 W/m2
13:36 48.9 °F /  9.4 °C 40.6 °F /  4.8 °C 29.18 in /  988 hPa WSW 15.0 mph /  24.1 km/h 24.0 mph /  38.6 km/h 73 % 0.00 in /  0 mm 116 W/m2
13:40 48.9 °F /  9.4 °C 40.6 °F /  4.8 °C 29.18 in /  988 hPa SW 15.0 mph /  24.1 km/h 23.0 mph /  37 km/h 73 % 0.00 in /  0 mm 116 W/m2
13:43 48.7 °F /  9.3 °C 40.8 °F /  4.9 °C 29.18 in /  988 hPa SW 11.0 mph /  17.7 km/h 19.0 mph /  30.6 km/h 74 % 0.00 in /  0 mm 97 W/m2
13:46 48.7 °F /  9.3 °C 40.8 °F /  4.9 °C 29.18 in /  988 hPa SW 14.0 mph /  22.5 km/h 21.0 mph /  33.8 km/h 74 % 0.00 in /  0 mm 100 W/m2
13:51 48.7 °F /  9.3 °C 40.8 °F /  4.9 °C 29.18 in /  988 hPa WSW 17.0 mph /  27.4 km/h 24.0 mph /  38.6 km/h 74 % 0.00 in /  0 mm 95 W/m2
13:52 48.7 °F /  9.3 °C 40.8 °F /  4.9 °C 29.18 in /  988 hPa WSW 16.0 mph /  25.7 km/h 24.0 mph /  38.6 km/h 74 % 0.00 in /  0 mm 98 W/m2
13:53 48.7 °F /  9.3 °C 40.8 °F /  4.9 °C 29.18 in /  988 hPa WSW 15.0 mph /  24.1 km/h 24.0 mph /  38.6 km/h 74 % 0.00 in /  0 mm 95 W/m2
13:58 48.6 °F /  9.2 °C 40.6 °F /  4.8 °C 29.17 in /  987.7 hPa WSW 15.0 mph /  24.1 km/h 24.0 mph /  38.6 km/h 74 % 0.00 in /  0 mm 72 W/m2
13:59 48.6 °F /  9.2 °C 40.6 °F /  4.8 °C 29.17 in /  987.7 hPa WSW 15.0 mph /  24.1 km/h 24.0 mph /  38.6 km/h 74 % 0.00 in /  0 mm 72 W/m2
14:04 48.6 °F /  9.2 °C 40.6 °F /  4.8 °C 29.17 in /  987.7 hPa SW 17.0 mph /  27.4 km/h 27.0 mph /  43.5 km/h 74 % 0.00 in /  0 mm 72 W/m2
14:05 48.6 °F /  9.2 °C 40.6 °F /  4.8 °C 29.17 in /  987.7 hPa SW 17.0 mph /  27.4 km/h 27.0 mph /  43.5 km/h 74 % 0.00 in /  0 mm 72 W/m2
14:09 48.4 °F /  9.1 °C 40.5 °F /  4.7 °C 29.17 in /  987.7 hPa SW 19.0 mph /  30.6 km/h 30.0 mph /  48.3 km/h 74 % 0.00 in /  0 mm 72 W/m2
14:14 48.4 °F /  9.1 °C 40.8 °F /  4.9 °C 29.16 in /  987.4 hPa SW 16.0 mph /  25.7 km/h 23.0 mph /  37 km/h 75 % 0.00 in /  0 mm 84 W/m2
14:16 48.4 °F /  9.1 °C 40.8 °F /  4.9 °C 29.16 in /  987.4 hPa SW 15.0 mph /  24.1 km/h 23.0 mph /  37 km/h 75 % 0.00 in /  0 mm 98 W/m2
14:21 48.4 °F /  9.1 °C 40.8 °F /  4.9 °C 29.16 in /  987.4 hPa SW 14.0 mph /  22.5 km/h 24.0 mph /  38.6 km/h 75 % 0.00 in /  0 mm 67 W/m2
14:26 48.2 °F /  9 °C 40.6 °F /  4.8 °C 29.16 in /  987.4 hPa WSW 14.0 mph /  22.5 km/h 20.0 mph /  32.2 km/h 75 % 0.00 in /  0 mm 77 W/m2
14:29 48.2 °F /  9 °C 40.6 °F /  4.8 °C 29.16 in /  987.4 hPa WSW 13.0 mph /  20.9 km/h 22.0 mph /  35.4 km/h 75 % 0.00 in /  0 mm 76 W/m2
14:34 48.0 °F /  8.9 °C 40.5 °F /  4.7 °C 29.16 in /  987.4 hPa WSW 13.0 mph /  20.9 km/h 19.0 mph /  30.6 km/h 75 % 0.00 in /  0 mm 63 W/m2
14:35 48.2 °F /  9 °C 40.6 °F /  4.8 °C 29.16 in /  987.4 hPa WSW 12.0 mph /  19.3 km/h 19.0 mph /  30.6 km/h 75 % 0.00 in /  0 mm 62 W/m2
14:40 48.2 °F /  9 °C 40.6 °F /  4.8 °C 29.16 in /  987.4 hPa SW 12.0 mph /  19.3 km/h 19.0 mph /  30.6 km/h 75 % 0.00 in /  0 mm 54 W/m2
14:45 48.0 °F /  8.9 °C 40.5 °F /  4.7 °C 29.16 in /  987.4 hPa WSW 13.0 mph /  20.9 km/h 22.0 mph /  35.4 km/h 75 % 0.00 in /  0 mm 51 W/m2
14:46 48.0 °F /  8.9 °C 40.5 °F /  4.7 °C 29.16 in /  987.4 hPa SW 14.0 mph /  22.5 km/h 23.0 mph /  37 km/h 75 % 0.00 in /  0 mm 49 W/m2
14:51 48.0 °F /  8.9 °C 40.5 °F /  4.7 °C 29.16 in /  987.4 hPa SW 14.0 mph /  22.5 km/h 21.0 mph /  33.8 km/h 75 % 0.00 in /  0 mm 53 W/m2
14:52 48.2 °F /  9 °C 40.6 °F /  4.8 °C 29.16 in /  987.4 hPa SW 11.0 mph /  17.7 km/h 20.0 mph /  32.2 km/h 75 % 0.00 in /  0 mm 53 W/m2
14:57 48.0 °F /  8.9 °C 40.5 °F /  4.7 °C 29.16 in /  987.4 hPa WSW 9.0 mph /  14.5 km/h 18.0 mph /  29 km/h 75 % 0.00 in /  0 mm 53 W/m2
15:02 48.0 °F /  8.9 °C 40.5 °F /  4.7 °C 29.16 in /  987.4 hPa SW 10.0 mph /  16.1 km/h 19.0 mph /  30.6 km/h 75 % 0.00 in /  0 mm 47 W/m2
15:04 48.0 °F /  8.9 °C 40.5 °F /  4.7 °C 29.15 in /  987 hPa SW 10.0 mph /  16.1 km/h 15.0 mph /  24.1 km/h 75 % 0.00 in /  0 mm 40 W/m2
15:09 47.8 °F /  8.8 °C 40.6 °F /  4.8 °C 29.15 in /  987 hPa SW 9.0 mph /  14.5 km/h 15.0 mph /  24.1 km/h 76 % 0.00 in /  0 mm 23 W/m2
15:10 47.8 °F /  8.8 °C 40.6 °F /  4.8 °C 29.15 in /  987 hPa SW 10.0 mph /  16.1 km/h 15.0 mph /  24.1 km/h 76 % 0.00 in /  0 mm 21 W/m2
15:13 47.8 °F /  8.8 °C 40.6 °F /  4.8 °C 29.15 in /  987 hPa SW 8.0 mph /  12.9 km/h 12.0 mph /  19.3 km/h 76 % 0.00 in /  0 mm 19 W/m2
15:15 47.8 °F /  8.8 °C 40.6 °F /  4.8 °C 29.15 in /  987 hPa WSW 9.0 mph /  14.5 km/h 12.0 mph /  19.3 km/h 76 % 0.00 in /  0 mm 19 W/m2
15:20 47.7 °F /  8.7 °C 40.5 °F /  4.7 °C 29.15 in /  987 hPa WSW 9.0 mph /  14.5 km/h 16.0 mph /  25.7 km/h 76 % 0.00 in /  0 mm 11 W/m2
15:25 47.8 °F /  8.8 °C 40.6 °F /  4.8 °C 29.15 in /  987 hPa SW 8.0 mph /  12.9 km/h 12.0 mph /  19.3 km/h 76 % 0.00 in /  0 mm 9 W/m2
15:27 47.8 °F /  8.8 °C 41.0 °F /  5 °C 29.16 in /  987.4 hPa SW 9.0 mph /  14.5 km/h 14.0 mph /  22.5 km/h 77 % 0.00 in /  0 mm 9 W/m2
15:29 47.8 °F /  8.8 °C 41.0 °F /  5 °C 29.15 in /  987 hPa SW 10.0 mph /  16.1 km/h 18.0 mph /  29 km/h 77 % 0.00 in /  0 mm 9 W/m2
15:34 47.7 °F /  8.7 °C 41.1 °F /  5.1 °C 29.15 in /  987 hPa SW 10.0 mph /  16.1 km/h 19.0 mph /  30.6 km/h 78 % 0.00 in /  0 mm 7 W/m2
15:36 47.7 °F /  8.7 °C 41.8 °F /  5.4 °C 29.15 in /  987 hPa SW 14.0 mph /  22.5 km/h 25.0 mph /  40.2 km/h 80 % 0.00 in /  0 mm 5 W/m2
15:40 47.5 °F /  8.6 °C 41.9 °F /  5.5 °C 29.16 in /  987.4 hPa SW 13.0 mph /  20.9 km/h 20.0 mph /  32.2 km/h 81 % 0.00 in /  0 mm 0 W/m2
15:45 47.1 °F /  8.4 °C 42.2 °F /  5.7 °C 29.15 in /  987 hPa SW 10.0 mph /  16.1 km/h 18.0 mph /  29 km/h 83 % 0.00 in /  0 mm 0 W/m2
15:46 47.1 °F /  8.4 °C 42.2 °F /  5.7 °C 29.14 in /  986.7 hPa SW 11.0 mph /  17.7 km/h 15.0 mph /  24.1 km/h 83 % 0.00 in /  0 mm 0 W/m2
15:51 46.6 °F /  8.1 °C 42.0 °F /  5.6 °C 29.14 in /  986.7 hPa WSW 11.0 mph /  17.7 km/h 22.0 mph /  35.4 km/h 84 % 0.01 in /  0.25 mm 0 W/m2
15:56 46.2 °F /  7.9 °C 41.7 °F /  5.4 °C 29.13 in /  986.3 hPa SW 12.0 mph /  19.3 km/h 19.0 mph /  30.6 km/h 84 % 0.01 in /  0.25 mm 0 W/m2
15:58 46.2 °F /  7.9 °C 41.7 °F /  5.4 °C 29.13 in /  986.3 hPa SW 11.0 mph /  17.7 km/h 19.0 mph /  30.6 km/h 84 % 0.01 in /  0.25 mm 0 W/m2
16:03 46.0 °F /  7.8 °C 41.5 °F /  5.3 °C 29.14 in /  986.7 hPa SW 12.0 mph /  19.3 km/h 20.0 mph /  32.2 km/h 84 % 0.01 in /  0.25 mm 0 W/m2
16:06 46.0 °F /  7.8 °C 41.5 °F /  5.3 °C 29.14 in /  986.7 hPa SW 10.0 mph /  16.1 km/h 16.0 mph /  25.7 km/h 84 % 0.01 in /  0.25 mm 0 W/m2
16:11 45.9 °F /  7.7 °C 41.3 °F /  5.2 °C 29.13 in /  986.3 hPa SW 10.0 mph /  16.1 km/h 15.0 mph /  24.1 km/h 84 % 0.01 in /  0.25 mm 0 W/m2
16:14 45.7 °F /  7.6 °C 40.8 °F /  4.9 °C 29.13 in /  986.3 hPa SW 12.0 mph /  19.3 km/h 20.0 mph /  32.2 km/h 83 % 0.01 in /  0.25 mm 0 W/m2
16:19 45.5 °F /  7.5 °C 40.3 °F /  4.6 °C 29.14 in /  986.7 hPa SW 14.0 mph /  22.5 km/h 22.0 mph /  35.4 km/h 82 % 0.01 in /  0.25 mm 0 W/m2
16:20 45.5 °F /  7.5 °C 40.3 °F /  4.6 °C 29.14 in /  986.7 hPa SW 15.0 mph /  24.1 km/h 25.0 mph /  40.2 km/h 82 % 0.01 in /  0.25 mm 0 W/m2
16:23 45.3 °F /  7.4 °C 40.1 °F /  4.5 °C 29.14 in /  986.7 hPa WSW 14.0 mph /  22.5 km/h 22.0 mph /  35.4 km/h 82 % 0.01 in /  0.25 mm 0 W/m2
16:26 45.1 °F /  7.3 °C 40.0 °F /  4.4 °C 29.14 in /  986.7 hPa SW 15.0 mph /  24.1 km/h 26.0 mph /  41.8 km/h 82 % 0.01 in /  0.25 mm 0 W/m2
16:30 45.0 °F /  7.2 °C 39.8 °F /  4.3 °C 29.14 in /  986.7 hPa SW 18.0 mph /  29 km/h 25.0 mph /  40.2 km/h 82 % 0.01 in /  0.25 mm 0 W/m2
16:33 44.8 °F /  7.1 °C 39.9 °F /  4.4 °C 29.14 in /  986.7 hPa SW 13.0 mph /  20.9 km/h 20.0 mph /  32.2 km/h 83 % 0.01 in /  0.25 mm 0 W/m2
16:38 44.2 °F /  6.8 °C 39.7 °F /  4.3 °C 29.13 in /  986.3 hPa SW 12.0 mph /  19.3 km/h 20.0 mph /  32.2 km/h 84 % 0.01 in /  0.25 mm 0 W/m2
16:40 44.2 °F /  6.8 °C 40.0 °F /  4.4 °C 29.13 in /  986.3 hPa SW 11.0 mph /  17.7 km/h 16.0 mph /  25.7 km/h 85 % 0.01 in /  0.25 mm 0 W/m2
16:42 44.1 °F /  6.7 °C 39.8 °F /  4.3 °C 29.13 in /  986.3 hPa SW 10.0 mph /  16.1 km/h 16.0 mph /  25.7 km/h 85 % 0.01 in /  0.25 mm 0 W/m2
16:46 44.1 °F /  6.7 °C 39.8 °F /  4.3 °C 29.13 in /  986.3 hPa SW 9.0 mph /  14.5 km/h 15.0 mph /  24.1 km/h 85 % 0.00 in /  0 mm 0 W/m2
16:49 43.9 °F /  6.6 °C 39.7 °F /  4.3 °C 29.14 in /  986.7 hPa SW 7.0 mph /  11.3 km/h 13.0 mph /  20.9 km/h 85 % 0.00 in /  0 mm 0 W/m2
16:51 43.9 °F /  6.6 °C 39.7 °F /  4.3 °C 29.14 in /  986.7 hPa SW 7.0 mph /  11.3 km/h 11.0 mph /  17.7 km/h 85 % 0.00 in /  0 mm 0 W/m2
16:56 43.9 °F /  6.6 °C 39.7 °F /  4.3 °C 29.14 in /  986.7 hPa SW 10.0 mph /  16.1 km/h 15.0 mph /  24.1 km/h 85 % 0.00 in /  0 mm 0 W/m2
16:57 43.9 °F /  6.6 °C 39.7 °F /  4.3 °C 29.14 in /  986.7 hPa SW 10.0 mph /  16.1 km/h 15.0 mph /  24.1 km/h 85 % 0.00 in /  0 mm 0 W/m2
17:02 43.9 °F /  6.6 °C 39.7 °F /  4.3 °C 29.14 in /  986.7 hPa SW 8.0 mph /  12.9 km/h 14.0 mph /  22.5 km/h 85 % 0.00 in /  0 mm 0 W/m2
17:04 43.9 °F /  6.6 °C 39.4 °F /  4.1 °C 29.14 in /  986.7 hPa SW 7.0 mph /  11.3 km/h 13.0 mph /  20.9 km/h 84 % 0.00 in /  0 mm 0 W/m2
17:09 43.7 °F /  6.5 °C 39.5 °F /  4.2 °C 29.14 in /  986.7 hPa SW 7.0 mph /  11.3 km/h 10.0 mph /  16.1 km/h 85 % 0.00 in /  0 mm 0 W/m2
17:12 43.7 °F /  6.5 °C 39.5 °F /  4.2 °C 29.13 in /  986.3 hPa SW 5.0 mph /  8 km/h 7.0 mph /  11.3 km/h 85 % 0.00 in /  0 mm 0 W/m2
17:15 43.5 °F /  6.4 °C 39.3 °F /  4.1 °C 29.13 in /  986.3 hPa SW 5.0 mph /  8 km/h 8.0 mph /  12.9 km/h 85 % 0.00 in /  0 mm 0 W/m2
17:20 43.5 °F /  6.4 °C 39.3 °F /  4.1 °C 29.13 in /  986.3 hPa SW 2.0 mph /  3.2 km/h 4.0 mph /  6.4 km/h 85 % 0.00 in /  0 mm 0 W/m2
17:22 43.3 °F /  6.3 °C 39.1 °F /  3.9 °C 29.13 in /  986.3 hPa SW 1.0 mph /  1.6 km/h 2.0 mph /  3.2 km/h 85 % 0.00 in /  0 mm 0 W/m2
17:27 43.3 °F /  6.3 °C 39.1 °F /  3.9 °C 29.13 in /  986.3 hPa SW 6.0 mph /  9.7 km/h 9.0 mph /  14.5 km/h 85 % 0.00 in /  0 mm 0 W/m2
17:32 43.5 °F /  6.4 °C 39.3 °F /  4.1 °C 29.13 in /  986.3 hPa SW 5.0 mph /  8 km/h 7.0 mph /  11.3 km/h 85 % 0.00 in /  0 mm 0 W/m2
17:35 43.5 °F /  6.4 °C 39.3 °F /  4.1 °C 29.13 in /  986.3 hPa SW 3.0 mph /  4.8 km/h 7.0 mph /  11.3 km/h 85 % 0.00 in /  0 mm 0 W/m2
17:41 43.3 °F /  6.3 °C 39.1 °F /  3.9 °C 29.13 in /  986.3 hPa SW 1.0 mph /  1.6 km/h 2.0 mph /  3.2 km/h 85 % 0.00 in /  0 mm 0 W/m2
17:42 43.3 °F /  6.3 °C 39.1 °F /  3.9 °C 29.13 in /  986.3 hPa Calm     85 % 0.00 in /  0 mm 0 W/m2
17:47 43.2 °F /  6.2 °C 39.0 °F /  3.9 °C 29.13 in /  986.3 hPa SW 2.0 mph /  3.2 km/h 5.0 mph /  8 km/h 85 % 0.00 in /  0 mm 0 W/m2
17:50 43.0 °F /  6.1 °C 38.8 °F /  3.8 °C 29.13 in /  986.3 hPa SSW 4.0 mph /  6.4 km/h 9.0 mph /  14.5 km/h 85 % 0.00 in /  0 mm 0 W/m2
17:55 42.8 °F /  6 °C 38.9 °F /  3.8 °C 29.13 in /  986.3 hPa South 5.0 mph /  8 km/h 8.0 mph /  12.9 km/h 86 % 0.00 in /  0 mm 0 W/m2
17:58 42.8 °F /  6 °C 39.2 °F /  4 °C 29.13 in /  986.3 hPa SSW 6.0 mph /  9.7 km/h 12.0 mph /  19.3 km/h 87 % 0.00 in /  0 mm 0 W/m2
18:01 43.0 °F /  6.1 °C 39.4 °F /  4.1 °C 29.12 in /  986 hPa SSW 6.0 mph /  9.7 km/h 9.0 mph /  14.5 km/h 87 % 0.00 in /  0 mm 0 W/m2
18:06 43.2 °F /  6.2 °C 39.6 °F /  4.2 °C 29.12 in /  986 hPa SSW 8.0 mph /  12.9 km/h 13.0 mph /  20.9 km/h 87 % 0.00 in /  0 mm 0 W/m2
18:07 43.2 °F /  6.2 °C 39.6 °F /  4.2 °C 29.12 in /  986 hPa South 8.0 mph /  12.9 km/h 11.0 mph /  17.7 km/h 87 % 0.00 in /  0 mm 0 W/m2
18:09 43.3 °F /  6.3 °C 39.7 °F /  4.3 °C 29.12 in /  986 hPa SSW 8.0 mph /  12.9 km/h 11.0 mph /  17.7 km/h 87 % 0.00 in /  0 mm 0 W/m2
18:14 43.3 °F /  6.3 °C 39.7 °F /  4.3 °C 29.12 in /  986 hPa SSW 7.0 mph /  11.3 km/h 11.0 mph /  17.7 km/h 87 % 0.00 in /  0 mm 0 W/m2
18:16 43.3 °F /  6.3 °C 39.7 °F /  4.3 °C 29.12 in /  986 hPa SSW 6.0 mph /  9.7 km/h 9.0 mph /  14.5 km/h 87 % 0.00 in /  0 mm 0 W/m2
18:21 43.3 °F /  6.3 °C 39.7 °F /  4.3 °C 29.12 in /  986 hPa SSW 8.0 mph /  12.9 km/h 11.0 mph /  17.7 km/h 87 % 0.00 in /  0 mm 0 W/m2
18:24 43.3 °F /  6.3 °C 39.7 °F /  4.3 °C 29.12 in /  986 hPa SSW 8.0 mph /  12.9 km/h 10.0 mph /  16.1 km/h 87 % 0.00 in /  0 mm 0 W/m2
18:29 43.3 °F /  6.3 °C 39.7 °F /  4.3 °C 29.12 in /  986 hPa SSW 7.0 mph /  11.3 km/h 11.0 mph /  17.7 km/h 87 % 0.00 in /  0 mm 0 W/m2
18:34 43.2 °F /  6.2 °C 39.8 °F /  4.3 °C 29.12 in /  986 hPa SW 7.0 mph /  11.3 km/h 9.0 mph /  14.5 km/h 88 % 0.00 in /  0 mm 0 W/m2
18:37 43.2 °F /  6.2 °C 39.8 °F /  4.3 °C 29.12 in /  986 hPa SW 8.0 mph /  12.9 km/h 11.0 mph /  17.7 km/h 88 % 0.00 in /  0 mm 0 W/m2
18:38 43.2 °F /  6.2 °C 39.8 °F /  4.3 °C 29.12 in /  986 hPa SW 7.0 mph /  11.3 km/h 11.0 mph /  17.7 km/h 88 % 0.00 in /  0 mm 0 W/m2
18:43 43.2 °F /  6.2 °C 39.8 °F /  4.3 °C 29.12 in /  986 hPa SW 6.0 mph /  9.7 km/h 8.0 mph /  12.9 km/h 88 % 0.00 in /  0 mm 0 W/m2
18:48 43.2 °F /  6.2 °C 40.1 °F /  4.5 °C 29.11 in /  985.7 hPa SW 4.0 mph /  6.4 km/h 7.0 mph /  11.3 km/h 89 % 0.00 in /  0 mm 0 W/m2
18:49 43.3 °F /  6.3 °C 40.3 °F /  4.6 °C 29.11 in /  985.7 hPa SW 4.0 mph /  6.4 km/h 6.0 mph /  9.7 km/h 89 % 0.00 in /  0 mm 0 W/m2
18:53 43.2 °F /  6.2 °C 40.1 °F /  4.5 °C 29.11 in /  985.7 hPa SW 3.0 mph /  4.8 km/h 5.0 mph /  8 km/h 89 % 0.01 in /  0.25 mm 0 W/m2
18:57 43.2 °F /  6.2 °C 40.1 °F /  4.5 °C 29.11 in /  985.7 hPa WSW 6.0 mph /  9.7 km/h 10.0 mph /  16.1 km/h 89 % 0.01 in /  0.25 mm 0 W/m2
19:02 43.3 °F /  6.3 °C 40.3 °F /  4.6 °C 29.11 in /  985.7 hPa WSW 6.0 mph /  9.7 km/h 8.0 mph /  12.9 km/h 89 % 0.01 in /  0.25 mm 0 W/m2
19:04 43.3 °F /  6.3 °C 40.6 °F /  4.8 °C 29.11 in /  985.7 hPa WSW 6.0 mph /  9.7 km/h 8.0 mph /  12.9 km/h 90 % 0.01 in /  0.25 mm 0 W/m2
19:09 43.2 °F /  6.2 °C 40.4 °F /  4.7 °C 29.11 in /  985.7 hPa WSW 6.0 mph /  9.7 km/h 9.0 mph /  14.5 km/h 90 % 0.01 in /  0.25 mm 0 W/m2
19:10 43.2 °F /  6.2 °C 40.4 °F /  4.7 °C 29.12 in /  986 hPa WSW 7.0 mph /  11.3 km/h 9.0 mph /  14.5 km/h 90 % 0.01 in /  0.25 mm 0 W/m2
19:15 43.2 °F /  6.2 °C 40.4 °F /  4.7 °C 29.12 in /  986 hPa WSW 6.0 mph /  9.7 km/h 11.0 mph /  17.7 km/h 90 % 0.01 in /  0.25 mm 0 W/m2
19:17 43.2 °F /  6.2 °C 40.4 °F /  4.7 °C 29.12 in /  986 hPa WSW 7.0 mph /  11.3 km/h 11.0 mph /  17.7 km/h 90 % 0.01 in /  0.25 mm 0 W/m2
19:22 43.3 °F /  6.3 °C 40.9 °F /  4.9 °C 29.12 in /  986 hPa WSW 8.0 mph /  12.9 km/h 15.0 mph /  24.1 km/h 91 % 0.02 in /  0.51 mm 0 W/m2
19:26 43.5 °F /  6.4 °C 41.1 °F /  5.1 °C 29.13 in /  986.3 hPa WSW 9.0 mph /  14.5 km/h 18.0 mph /  29 km/h 91 % 0.02 in /  0.51 mm 0 W/m2
19:29 43.3 °F /  6.3 °C 40.6 °F /  4.8 °C 29.12 in /  986 hPa WSW 14.0 mph /  22.5 km/h 23.0 mph /  37 km/h 90 % 0.04 in /  1.02 mm 0 W/m2
19:34 42.8 °F /  6 °C 39.8 °F /  4.3 °C 29.11 in /  985.7 hPa SW 13.0 mph /  20.9 km/h 26.0 mph /  41.8 km/h 89 % 0.05 in /  1.27 mm 0 W/m2
19:35 42.6 °F /  5.9 °C 39.6 °F /  4.2 °C 29.11 in /  985.7 hPa SW 14.0 mph /  22.5 km/h 26.0 mph /  41.8 km/h 89 % 0.05 in /  1.27 mm 0 W/m2
19:40 42.4 °F /  5.8 °C 39.4 °F /  4.1 °C 29.10 in /  985.3 hPa SW 8.0 mph /  12.9 km/h 13.0 mph /  20.9 km/h 89 % 0.05 in /  1.27 mm 0 W/m2
19:42 42.4 °F /  5.8 °C 39.7 °F /  4.3 °C 29.10 in /  985.3 hPa SW 7.0 mph /  11.3 km/h 11.0 mph /  17.7 km/h 90 % 0.05 in /  1.27 mm 0 W/m2
19:44 42.3 °F /  5.7 °C 39.5 °F /  4.2 °C 29.10 in /  985.3 hPa SW 7.0 mph /  11.3 km/h 10.0 mph /  16.1 km/h 90 % 0.05 in /  1.27 mm 0 W/m2
19:50 42.3 °F /  5.7 °C 39.5 °F /  4.2 °C 29.10 in /  985.3 hPa WSW 9.0 mph /  14.5 km/h 14.0 mph /  22.5 km/h 90 % 0.05 in /  1.27 mm 0 W/m2
19:51 42.1 °F /  5.6 °C 39.4 °F /  4.1 °C 29.11 in /  985.7 hPa WSW 9.0 mph /  14.5 km/h 13.0 mph /  20.9 km/h 90 % 0.04 in /  1.02 mm 0 W/m2
19:53 42.1 °F /  5.6 °C 39.4 °F /  4.1 °C 29.11 in /  985.7 hPa WSW 9.0 mph /  14.5 km/h 14.0 mph /  22.5 km/h 90 % 0.04 in /  1.02 mm 0 W/m2
19:58 42.3 °F /  5.7 °C 39.2 °F /  4 °C 29.11 in /  985.7 hPa WSW 10.0 mph /  16.1 km/h 13.0 mph /  20.9 km/h 89 % 0.04 in /  1.02 mm 0 W/m2
20:01 42.1 °F /  5.6 °C 39.1 °F /  3.9 °C 29.11 in /  985.7 hPa WSW 9.0 mph /  14.5 km/h 13.0 mph /  20.9 km/h 89 % 0.04 in /  1.02 mm 0 W/m2
20:02 42.1 °F /  5.6 °C 39.1 °F /  3.9 °C 29.11 in /  985.7 hPa WSW 9.0 mph /  14.5 km/h 15.0 mph /  24.1 km/h 89 % 0.04 in /  1.02 mm 0 W/m2
20:07 42.1 °F /  5.6 °C 39.1 °F /  3.9 °C 29.11 in /  985.7 hPa SW 6.0 mph /  9.7 km/h 10.0 mph /  16.1 km/h 89 % 0.04 in /  1.02 mm 0 W/m2
20:09 42.1 °F /  5.6 °C 39.1 °F /  3.9 °C 29.12 in /  986 hPa SW 6.0 mph /  9.7 km/h 11.0 mph /  17.7 km/h 89 % 0.04 in /  1.02 mm 0 W/m2
20:14 42.1 °F /  5.6 °C 39.1 °F /  3.9 °C 29.12 in /  986 hPa WSW 4.0 mph /  6.4 km/h 9.0 mph /  14.5 km/h 89 % 0.04 in /  1.02 mm 0 W/m2
20:17 42.1 °F /  5.6 °C 39.1 °F /  3.9 °C 29.12 in /  986 hPa WSW 6.0 mph /  9.7 km/h 9.0 mph /  14.5 km/h 89 % 0.04 in /  1.02 mm 0 W/m2
20:22 42.1 °F /  5.6 °C 39.1 °F /  3.9 °C 29.13 in /  986.3 hPa WSW 7.0 mph /  11.3 km/h 10.0 mph /  16.1 km/h 89 % 0.03 in /  0.76 mm 0 W/m2
20:27 42.1 °F /  5.6 °C 39.1 °F /  3.9 °C 29.13 in /  986.3 hPa SW 8.0 mph /  12.9 km/h 12.0 mph /  19.3 km/h 89 % 0.02 in /  0.51 mm 0 W/m2
20:29 42.1 °F /  5.6 °C 39.1 °F /  3.9 °C 29.13 in /  986.3 hPa WSW 9.0 mph /  14.5 km/h 14.0 mph /  22.5 km/h 89 % 0.01 in /  0.25 mm 0 W/m2
20:34 42.1 °F /  5.6 °C 39.4 °F /  4.1 °C 29.14 in /  986.7 hPa West 8.0 mph /  12.9 km/h 11.0 mph /  17.7 km/h 90 % 0.00 in /  0 mm 0 W/m2
20:36 42.3 °F /  5.7 °C 39.5 °F /  4.2 °C 29.14 in /  986.7 hPa West 10.0 mph /  16.1 km/h 21.0 mph /  33.8 km/h 90 % 0.00 in /  0 mm 0 W/m2
20:41 42.1 °F /  5.6 °C 39.4 °F /  4.1 °C 29.15 in /  987 hPa WSW 13.0 mph /  20.9 km/h 22.0 mph /  35.4 km/h 90 % 0.00 in /  0 mm 0 W/m2
20:43 42.1 °F /  5.6 °C 39.1 °F /  3.9 °C 29.15 in /  987 hPa WSW 12.0 mph /  19.3 km/h 21.0 mph /  33.8 km/h 89 % 0.00 in /  0 mm 0 W/m2
20:48 41.7 °F /  5.4 °C 38.7 °F /  3.7 °C 29.15 in /  987 hPa West 11.0 mph /  17.7 km/h 18.0 mph /  29 km/h 89 % 0.00 in /  0 mm 0 W/m2
20:53 41.5 °F /  5.3 °C 38.8 °F /  3.8 °C 29.15 in /  987 hPa West 8.0 mph /  12.9 km/h 13.0 mph /  20.9 km/h 90 % 0.00 in /  0 mm 0 W/m2
20:58 41.4 °F /  5.2 °C 38.6 °F /  3.7 °C 29.15 in /  987 hPa WNW 11.0 mph /  17.7 km/h 18.0 mph /  29 km/h 90 % 0.00 in /  0 mm 0 W/m2
21:03 41.2 °F /  5.1 °C 38.5 °F /  3.6 °C 29.16 in /  987.4 hPa West 9.0 mph /  14.5 km/h 16.0 mph /  25.7 km/h 90 % 0.00 in /  0 mm 0 W/m2
21:04 41.2 °F /  5.1 °C 38.5 °F /  3.6 °C 29.16 in /  987.4 hPa West 10.0 mph /  16.1 km/h 16.0 mph /  25.7 km/h 90 % 0.00 in /  0 mm 0 W/m2
21:09 41.0 °F /  5 °C 38.3 °F /  3.5 °C 29.16 in /  987.4 hPa West 7.0 mph /  11.3 km/h 11.0 mph /  17.7 km/h 90 % 0.00 in /  0 mm 0 W/m2
21:14 40.8 °F /  4.9 °C 38.1 °F /  3.4 °C 29.16 in /  987.4 hPa West 7.0 mph /  11.3 km/h 10.0 mph /  16.1 km/h 90 % 0.00 in /  0 mm 0 W/m2
21:18 40.8 °F /  4.9 °C 38.4 °F /  3.6 °C 29.16 in /  987.4 hPa West 9.0 mph /  14.5 km/h 15.0 mph /  24.1 km/h 91 % 0.00 in /  0 mm 0 W/m2
21:23 40.6 °F /  4.8 °C 37.9 °F /  3.3 °C 29.16 in /  987.4 hPa West 10.0 mph /  16.1 km/h 14.0 mph /  22.5 km/h 90 % 0.00 in /  0 mm 0 W/m2
21:28 40.6 °F /  4.8 °C 38.2 °F /  3.4 °C 29.16 in /  987.4 hPa West 7.0 mph /  11.3 km/h 10.0 mph /  16.1 km/h 91 % 0.00 in /  0 mm 0 W/m2
21:29 40.6 °F /  4.8 °C 38.2 °F /  3.4 °C 29.16 in /  987.4 hPa West 7.0 mph /  11.3 km/h 10.0 mph /  16.1 km/h 91 % 0.00 in /  0 mm 0 W/m2
21:34 40.6 °F /  4.8 °C 38.2 °F /  3.4 °C 29.16 in /  987.4 hPa West 8.0 mph /  12.9 km/h 12.0 mph /  19.3 km/h 91 % 0.00 in /  0 mm 0 W/m2
21:36 40.6 °F /  4.8 °C 38.2 °F /  3.4 °C 29.16 in /  987.4 hPa West 10.0 mph /  16.1 km/h 14.0 mph /  22.5 km/h 91 % 0.00 in /  0 mm 0 W/m2
21:38 40.5 °F /  4.7 °C 38.0 °F /  3.3 °C 29.16 in /  987.4 hPa West 8.0 mph /  12.9 km/h 13.0 mph /  20.9 km/h 91 % 0.00 in /  0 mm 0 W/m2
21:43 40.5 °F /  4.7 °C 38.0 °F /  3.3 °C 29.16 in /  987.4 hPa West 8.0 mph /  12.9 km/h 12.0 mph /  19.3 km/h 91 % 0.00 in /  0 mm 0 W/m2
21:48 40.5 °F /  4.7 °C 38.0 °F /  3.3 °C 29.16 in /  987.4 hPa WSW 6.0 mph /  9.7 km/h 10.0 mph /  16.1 km/h 91 % 0.00 in /  0 mm 0 W/m2
21:53 40.5 °F /  4.7 °C 38.0 °F /  3.3 °C 29.16 in /  987.4 hPa West 7.0 mph /  11.3 km/h 12.0 mph /  19.3 km/h 91 % 0.00 in /  0 mm 0 W/m2
21:58 40.6 °F /  4.8 °C 38.5 °F /  3.6 °C 29.17 in /  987.7 hPa West 7.0 mph /  11.3 km/h 13.0 mph /  20.9 km/h 92 % 0.01 in /  0.25 mm 0 W/m2
21:59 40.6 °F /  4.8 °C 38.5 °F /  3.6 °C 29.17 in /  987.7 hPa West 6.0 mph /  9.7 km/h 10.0 mph /  16.1 km/h 92 % 0.01 in /  0.25 mm 0 W/m2
22:03 40.8 °F /  4.9 °C 38.7 °F /  3.7 °C 29.17 in /  987.7 hPa West 13.0 mph /  20.9 km/h 20.0 mph /  32.2 km/h 92 % 0.01 in /  0.25 mm 0 W/m2
22:04 40.8 °F /  4.9 °C 38.7 °F /  3.7 °C 29.17 in /  987.7 hPa West 10.0 mph /  16.1 km/h 16.0 mph /  25.7 km/h 92 % 0.01 in /  0.25 mm 0 W/m2
22:09 41.2 °F /  5.1 °C 39.0 °F /  3.9 °C 29.18 in /  988 hPa WNW 9.0 mph /  14.5 km/h 13.0 mph /  20.9 km/h 92 % 0.01 in /  0.25 mm 0 W/m2
22:10 41.2 °F /  5.1 °C 39.0 °F /  3.9 °C 29.18 in /  988 hPa WNW 8.0 mph /  12.9 km/h 13.0 mph /  20.9 km/h 92 % 0.01 in /  0.25 mm 0 W/m2
22:15 41.5 °F /  5.3 °C 39.4 °F /  4.1 °C 29.18 in /  988 hPa West 11.0 mph /  17.7 km/h 18.0 mph /  29 km/h 92 % 0.01 in /  0.25 mm 0 W/m2
22:16 41.5 °F /  5.3 °C 39.4 °F /  4.1 °C 29.18 in /  988 hPa WNW 11.0 mph /  17.7 km/h 18.0 mph /  29 km/h 92 % 0.01 in /  0.25 mm 0 W/m2
22:21 41.7 °F /  5.4 °C 39.3 °F /  4.1 °C 29.19 in /  988.4 hPa West 12.0 mph /  19.3 km/h 22.0 mph /  35.4 km/h 91 % 0.01 in /  0.25 mm 0 W/m2
22:23 41.7 °F /  5.4 °C 39.3 °F /  4.1 °C 29.19 in /  988.4 hPa West 17.0 mph /  27.4 km/h 28.0 mph /  45.1 km/h 91 % 0.01 in /  0.25 mm 0 W/m2
22:26 41.7 °F /  5.4 °C 39.0 °F /  3.9 °C 29.19 in /  988.4 hPa West 14.0 mph /  22.5 km/h 26.0 mph /  41.8 km/h 90 % 0.01 in /  0.25 mm 0 W/m2
22:30 41.5 °F /  5.3 °C 38.8 °F /  3.8 °C 29.19 in /  988.4 hPa WNW 11.0 mph /  17.7 km/h 16.0 mph /  25.7 km/h 90 % 0.01 in /  0.25 mm 0 W/m2
22:31 41.5 °F /  5.3 °C 38.8 °F /  3.8 °C 29.19 in /  988.4 hPa West 12.0 mph /  19.3 km/h 20.0 mph /  32.2 km/h 90 % 0.01 in /  0.25 mm 0 W/m2
22:36 41.5 °F /  5.3 °C 38.8 °F /  3.8 °C 29.20 in /  988.7 hPa WNW 14.0 mph /  22.5 km/h 21.0 mph /  33.8 km/h 90 % 0.01 in /  0.25 mm 0 W/m2
22:41 41.5 °F /  5.3 °C 38.8 °F /  3.8 °C 29.20 in /  988.7 hPa WNW 11.0 mph /  17.7 km/h 18.0 mph /  29 km/h 90 % 0.01 in /  0.25 mm 0 W/m2
22:42 41.5 °F /  5.3 °C 38.8 °F /  3.8 °C 29.20 in /  988.7 hPa West 11.0 mph /  17.7 km/h 19.0 mph /  30.6 km/h 90 % 0.01 in /  0.25 mm 0 W/m2
22:47 41.7 °F /  5.4 °C 38.7 °F /  3.7 °C 29.21 in /  989.1 hPa WNW 17.0 mph /  27.4 km/h 25.0 mph /  40.2 km/h 89 % 0.01 in /  0.25 mm 0 W/m2
22:49 41.7 °F /  5.4 °C 38.7 °F /  3.7 °C 29.21 in /  989.1 hPa WNW 15.0 mph /  24.1 km/h 23.0 mph /  37 km/h 89 % 0.01 in /  0.25 mm 0 W/m2
22:55 41.9 °F /  5.5 °C 38.3 °F /  3.5 °C 29.22 in /  989.4 hPa WNW 18.0 mph /  29 km/h 26.0 mph /  41.8 km/h 87 % 0.00 in /  0 mm 0 W/m2
22:56 41.9 °F /  5.5 °C 38.3 °F /  3.5 °C 29.22 in /  989.4 hPa WNW 17.0 mph /  27.4 km/h 29.0 mph /  46.7 km/h 87 % 0.00 in /  0 mm 0 W/m2
23:01 41.9 °F /  5.5 °C 38.0 °F /  3.3 °C 29.22 in /  989.4 hPa WNW 15.0 mph /  24.1 km/h 23.0 mph /  37 km/h 86 % 0.00 in /  0 mm 0 W/m2
23:03 42.1 °F /  5.6 °C 38.2 °F /  3.4 °C 29.22 in /  989.4 hPa WNW 14.0 mph /  22.5 km/h 25.0 mph /  40.2 km/h 86 % 0.00 in /  0 mm 0 W/m2
23:04 41.9 °F /  5.5 °C 38.0 °F /  3.3 °C 29.22 in /  989.4 hPa WNW 13.0 mph /  20.9 km/h 25.0 mph /  40.2 km/h 86 % 0.00 in /  0 mm 0 W/m2
23:09 41.9 °F /  5.5 °C 38.0 °F /  3.3 °C 29.23 in /  989.7 hPa WNW 15.0 mph /  24.1 km/h 25.0 mph /  40.2 km/h 86 % 0.00 in /  0 mm 0 W/m2
23:12 41.9 °F /  5.5 °C 38.0 °F /  3.3 °C 29.23 in /  989.7 hPa WNW 14.0 mph /  22.5 km/h 25.0 mph /  40.2 km/h 86 % 0.00 in /  0 mm 0 W/m2
23:17 41.7 °F /  5.4 °C 37.8 °F /  3.2 °C 29.23 in /  989.7 hPa West 12.0 mph /  19.3 km/h 21.0 mph /  33.8 km/h 86 % 0.00 in /  0 mm 0 W/m2
23:22 41.7 °F /  5.4 °C 37.8 °F /  3.2 °C 29.23 in /  989.7 hPa West 11.0 mph /  17.7 km/h 18.0 mph /  29 km/h 86 % 0.00 in /  0 mm 0 W/m2
23:27 41.7 °F /  5.4 °C 37.8 °F /  3.2 °C 29.23 in /  989.7 hPa West 11.0 mph /  17.7 km/h 19.0 mph /  30.6 km/h 86 % 0.00 in /  0 mm 0 W/m2
23:28 41.7 °F /  5.4 °C 37.8 °F /  3.2 °C 29.23 in /  989.7 hPa West 11.0 mph /  17.7 km/h 19.0 mph /  30.6 km/h 86 % 0.00 in /  0 mm 0 W/m2
23:33 41.5 °F /  5.3 °C 37.7 °F /  3.2 °C 29.23 in /  989.7 hPa West 14.0 mph /  22.5 km/h 21.0 mph /  33.8 km/h 86 % 0.00 in /  0 mm 0 W/m2
23:36 41.5 °F /  5.3 °C 37.7 °F /  3.2 °C 29.23 in /  989.7 hPa West 14.0 mph /  22.5 km/h 20.0 mph /  32.2 km/h 86 % 0.00 in /  0 mm 0 W/m2
23:39 41.7 °F /  5.4 °C 37.8 °F /  3.2 °C 29.24 in /  990.1 hPa West 15.0 mph /  24.1 km/h 25.0 mph /  40.2 km/h 86 % 0.00 in /  0 mm 0 W/m2
23:42 41.7 °F /  5.4 °C 37.8 °F /  3.2 °C 29.24 in /  990.1 hPa West 14.0 mph /  22.5 km/h 22.0 mph /  35.4 km/h 86 % 0.00 in /  0 mm 0 W/m2
23:47 41.7 °F /  5.4 °C 37.8 °F /  3.2 °C 29.25 in /  990.4 hPa West 17.0 mph /  27.4 km/h 25.0 mph /  40.2 km/h 86 % 0.00 in /  0 mm 0 W/m2
23:48 41.7 °F /  5.4 °C 37.8 °F /  3.2 °C 29.25 in /  990.4 hPa West 17.0 mph /  27.4 km/h 25.0 mph /  40.2 km/h 86 % 0.00 in /  0 mm 0 W/m2
23:53 41.7 °F /  5.4 °C 37.8 °F /  3.2 °C 29.25 in /  990.4 hPa West 14.0 mph /  22.5 km/h 25.0 mph /  40.2 km/h 86 % 0.00 in /  0 mm 0 W/m2
23:57 41.7 °F /  5.4 °C 37.8 °F /  3.2 °C 29.25 in /  990.4 hPa West 15.0 mph /  24.1 km/h 22.0 mph /  35.4 km/h 86 % 0.00 in /  0 mm 0 W/m2
Delerius-Weather
Compliments of Weather Underground - 3 mb

Data updates at regular intervals.